AFL107 KLAX-UUEE
Flight info
| Callsign | AFL107 |
|---|---|
| Flight time | N/A |
| Altitude | 32000 |
| Route | LADYJ4 CSTRO DCT FMG DCT IMB/N0483F330 DCT ONSET DCT WELLF DCT LEXON DCT YMM DCT 60N104W 64N095W 68N080W/N0486F350 70N070W DCT NADMA/M082F350 DCT 76N040W 77N020W 75N000E/N0468F350 73N010E DCT BETMA/N0481F370 DCT EVOLA DCT RUDAM/K0895F370 N156 UTITA P65 UREPI/K0883F380 P65 ROMTA |
| Aircraft | B77W/H-SDE1E2E3FGHIJ2J3J4J5M1RWXY/LB1D1 |
Departure
| Time | 2026-04-21 20:24 |
|---|---|
| Airport | Los Angeles International Airport (KLAX) |
Arrival
| Time | N/A |
|---|---|
| Airport | Sheremetyevo International Airport (UUEE) |
| Time | Latitude | Longitude | Altitude | Speed | Heading |
|---|---|---|---|---|---|
| 2026-04-21 19:58 | 33.94176 | -118.41103 | 132 ft | 0 kts | 83° |
| 2026-04-21 20:13 | 33.94175 | -118.41116 | 132 ft | 2 kts | 83° |
| 2026-04-21 20:13 | 33.94173 | -118.41134 | 132 ft | 2 kts | 83° |
| 2026-04-21 20:13 | 33.94171 | -118.41152 | 132 ft | 2 kts | 83° |
| 2026-04-21 20:13 | 33.94170 | -118.41164 | 132 ft | 2 kts | 82° |
| 2026-04-21 20:14 | 33.94165 | -118.41181 | 132 ft | 2 kts | 58° |
| 2026-04-21 20:14 | 33.94156 | -118.41195 | 132 ft | 2 kts | 36° |
| 2026-04-21 20:14 | 33.94142 | -118.41204 | 131 ft | 2 kts | 14° |
| 2026-04-21 20:14 | 33.94128 | -118.41206 | 131 ft | 1 kts | 355° |
| 2026-04-21 20:15 | 33.94124 | -118.41206 | 131 ft | 0 kts | 353° |
| 2026-04-21 20:16 | 33.94131 | -118.41206 | 131 ft | 2 kts | 355° |
| 2026-04-21 20:17 | 33.94162 | -118.41209 | 131 ft | 6 kts | 356° |
| 2026-04-21 20:17 | 33.94220 | -118.41215 | 131 ft | 10 kts | 356° |
| 2026-04-21 20:17 | 33.94304 | -118.41225 | 129 ft | 13 kts | 350° |
| 2026-04-21 20:17 | 33.94406 | -118.41241 | 129 ft | 15 kts | 351° |
| 2026-04-21 20:18 | 33.94476 | -118.41252 | 129 ft | 14 kts | 353° |
| 2026-04-21 20:18 | 33.94581 | -118.41267 | 129 ft | 10 kts | 354° |
| 2026-04-21 20:18 | 33.94658 | -118.41280 | 130 ft | 11 kts | 353° |
| 2026-04-21 20:18 | 33.94740 | -118.41290 | 131 ft | 12 kts | 360° |
| 2026-04-21 20:19 | 33.94795 | -118.41225 | 132 ft | 12 kts | 77° |
| 2026-04-21 20:19 | 33.94811 | -118.41114 | 132 ft | 14 kts | 83° |
| 2026-04-21 20:19 | 33.94825 | -118.40987 | 132 ft | 16 kts | 83° |
| 2026-04-21 20:19 | 33.94841 | -118.40848 | 132 ft | 16 kts | 82° |
| 2026-04-21 20:20 | 33.94855 | -118.40697 | 129 ft | 19 kts | 83° |
| 2026-04-21 20:20 | 33.94873 | -118.40521 | 129 ft | 21 kts | 84° |
| 2026-04-21 20:20 | 33.94890 | -118.40355 | 128 ft | 16 kts | 85° |
| 2026-04-21 20:20 | 33.94904 | -118.40211 | 125 ft | 17 kts | 83° |
| 2026-04-21 20:21 | 33.94913 | -118.40104 | 124 ft | 9 kts | 79° |
| 2026-04-21 20:21 | 33.94920 | -118.40088 | 124 ft | 0 kts | 45° |
| 2026-04-21 20:21 | 33.94926 | -118.40083 | 124 ft | 2 kts | 35° |
| 2026-04-21 20:22 | 33.94954 | -118.40073 | 124 ft | 5 kts | 8° |
| 2026-04-21 20:22 | 33.95020 | -118.40123 | 124 ft | 6 kts | 276° |
| 2026-04-21 20:22 | 33.95019 | -118.40146 | 125 ft | 0 kts | 263° |
| 2026-04-21 20:23 | 33.95019 | -118.40149 | 125 ft | 1 kts | 263° |
| 2026-04-21 20:23 | 33.95016 | -118.40172 | 125 ft | 8 kts | 263° |
| 2026-04-21 20:23 | 33.94987 | -118.40482 | 129 ft | 66 kts | 263° |
| 2026-04-21 20:24 | 33.94910 | -118.41264 | 132 ft | 119 kts | 263° |
| 2026-04-21 20:24 | 33.94786 | -118.42464 | 126 ft | 168 kts | 263° |
| 2026-04-21 20:24 | 33.94628 | -118.44019 | 300 ft | 196 kts | 263° |
| 2026-04-21 20:24 | 33.94459 | -118.45677 | 742 ft | 207 kts | 266° |
| 2026-04-21 20:25 | 33.94387 | -118.47447 | 1207 ft | 219 kts | 268° |
| 2026-04-21 20:25 | 33.94322 | -118.49384 | 1314 ft | 237 kts | 267° |
| 2026-04-21 20:25 | 33.94199 | -118.51426 | 1742 ft | 247 kts | 264° |
| 2026-04-21 20:25 | 33.94023 | -118.53507 | 2133 ft | 251 kts | 264° |
| 2026-04-21 20:26 | 33.93861 | -118.55629 | 2549 ft | 253 kts | 263° |
| 2026-04-21 20:26 | 33.93691 | -118.57771 | 3114 ft | 257 kts | 263° |
| 2026-04-21 20:26 | 33.93521 | -118.59913 | 3765 ft | 257 kts | 264° |
| 2026-04-21 20:26 | 33.93618 | -118.62041 | 4296 ft | 262 kts | 285° |
| 2026-04-21 20:27 | 33.94556 | -118.63944 | 4810 ft | 270 kts | 315° |
| 2026-04-21 20:27 | 33.96101 | -118.65253 | 5454 ft | 268 kts | 330° |
| 2026-04-21 20:27 | 33.97654 | -118.66486 | 6174 ft | 265 kts | 329° |
| 2026-04-21 20:27 | 33.99312 | -118.67436 | 6559 ft | 267 kts | 351° |
| 2026-04-21 20:28 | 34.01149 | -118.67503 | 6982 ft | 268 kts | 6° |
| 2026-04-21 20:28 | 34.03023 | -118.67416 | 7485 ft | 272 kts | 3° |
| 2026-04-21 20:28 | 34.04959 | -118.67345 | 7953 ft | 275 kts | 5° |
| 2026-04-21 20:28 | 34.06879 | -118.67232 | 7985 ft | 278 kts | 6° |
| 2026-04-21 20:29 | 34.08812 | -118.66914 | 8205 ft | 285 kts | 14° |
| 2026-04-21 20:29 | 34.10746 | -118.66449 | 8872 ft | 282 kts | 13° |
| 2026-04-21 20:29 | 34.12669 | -118.66022 | 9430 ft | 283 kts | 14° |
| 2026-04-21 20:29 | 34.14611 | -118.65562 | 9888 ft | 288 kts | 14° |
| 2026-04-21 20:30 | 34.16607 | -118.65093 | 10217 ft | 298 kts | 15° |
| 2026-04-21 20:30 | 34.18722 | -118.64587 | 10240 ft | 319 kts | 14° |
| 2026-04-21 20:30 | 34.20948 | -118.64059 | 10405 ft | 336 kts | 14° |
| 2026-04-21 20:30 | 34.23285 | -118.63536 | 10948 ft | 341 kts | 10° |
| 2026-04-21 20:31 | 34.25664 | -118.63546 | 11507 ft | 349 kts | 354° |
| 2026-04-21 20:31 | 34.28061 | -118.64118 | 12064 ft | 352 kts | 352° |
| 2026-04-21 20:31 | 34.30502 | -118.64646 | 12604 ft | 355 kts | 353° |
| 2026-04-21 20:31 | 34.32939 | -118.65198 | 13149 ft | 359 kts | 352° |
| 2026-04-21 20:32 | 34.35380 | -118.65752 | 13693 ft | 362 kts | 352° |
| 2026-04-21 20:32 | 34.37883 | -118.66322 | 14237 ft | 366 kts | 352° |
| 2026-04-21 20:32 | 34.40408 | -118.66898 | 14768 ft | 369 kts | 352° |
| 2026-04-21 20:32 | 34.42928 | -118.67465 | 15279 ft | 372 kts | 352° |
| 2026-04-21 20:33 | 34.45479 | -118.67960 | 15774 ft | 375 kts | 353° |
| 2026-04-21 20:33 | 34.48070 | -118.68466 | 16267 ft | 378 kts | 353° |
| 2026-04-21 20:33 | 34.50701 | -118.68980 | 16759 ft | 381 kts | 353° |
| 2026-04-21 20:33 | 34.53315 | -118.69489 | 17239 ft | 384 kts | 353° |
| 2026-04-21 20:34 | 34.55978 | -118.70010 | 17707 ft | 387 kts | 353° |
| 2026-04-21 20:34 | 34.58662 | -118.70534 | 18162 ft | 390 kts | 352° |
| 2026-04-21 20:34 | 34.61385 | -118.71067 | 18604 ft | 393 kts | 352° |
| 2026-04-21 20:34 | 34.64070 | -118.71593 | 19023 ft | 397 kts | 352° |
| 2026-04-21 20:35 | 34.66799 | -118.72127 | 19447 ft | 400 kts | 352° |
| 2026-04-21 20:35 | 34.69591 | -118.72675 | 19860 ft | 403 kts | 351° |
| 2026-04-21 20:35 | 34.72305 | -118.73534 | 20208 ft | 407 kts | 338° |
| 2026-04-21 20:35 | 34.74829 | -118.75116 | 20568 ft | 410 kts | 329° |
| 2026-04-21 20:36 | 34.77320 | -118.76839 | 20959 ft | 413 kts | 331° |
| 2026-04-21 20:36 | 34.79837 | -118.78542 | 21348 ft | 415 kts | 330° |
| 2026-04-21 20:36 | 34.82374 | -118.80286 | 21750 ft | 417 kts | 330° |
| 2026-04-21 20:36 | 34.84889 | -118.82011 | 22155 ft | 419 kts | 330° |
| 2026-04-21 20:37 | 34.87425 | -118.83758 | 22551 ft | 421 kts | 330° |
| 2026-04-21 20:37 | 34.89994 | -118.85525 | 22967 ft | 421 kts | 331° |
| 2026-04-21 20:37 | 34.92524 | -118.87272 | 23411 ft | 421 kts | 331° |
| 2026-04-21 20:37 | 34.95095 | -118.89043 | 23839 ft | 422 kts | 332° |
| 2026-04-21 20:38 | 34.97648 | -118.90801 | 24252 ft | 422 kts | 332° |
| 2026-04-21 20:38 | 35.00230 | -118.92582 | 24654 ft | 422 kts | 332° |
| 2026-04-21 20:38 | 35.02768 | -118.94333 | 25028 ft | 423 kts | 332° |
| 2026-04-21 20:38 | 35.05360 | -118.96123 | 25386 ft | 424 kts | 332° |
| 2026-04-21 20:39 | 35.07917 | -118.97890 | 25706 ft | 426 kts | 332° |
| 2026-04-21 20:39 | 35.10516 | -118.99686 | 26028 ft | 428 kts | 332° |
| 2026-04-21 20:39 | 35.13078 | -119.01463 | 26330 ft | 430 kts | 333° |
| 2026-04-21 20:39 | 35.15729 | -119.03301 | 26633 ft | 432 kts | 333° |
| 2026-04-21 20:40 | 35.18324 | -119.05098 | 26944 ft | 433 kts | 333° |
| 2026-04-21 20:40 | 35.20990 | -119.06947 | 27239 ft | 435 kts | 333° |
| 2026-04-21 20:40 | 35.23624 | -119.08775 | 27529 ft | 437 kts | 333° |
| 2026-04-21 20:40 | 35.26277 | -119.10619 | 27812 ft | 439 kts | 333° |
| 2026-04-21 20:41 | 35.28935 | -119.12468 | 28093 ft | 441 kts | 333° |
| 2026-04-21 20:41 | 35.31610 | -119.14329 | 28368 ft | 443 kts | 333° |
| 2026-04-21 20:41 | 35.34316 | -119.16214 | 28650 ft | 444 kts | 333° |
| 2026-04-21 20:41 | 35.36979 | -119.18071 | 28906 ft | 446 kts | 333° |
| 2026-04-21 20:42 | 35.39700 | -119.19968 | 29183 ft | 448 kts | 333° |
| 2026-04-21 20:42 | 35.42459 | -119.21805 | 29430 ft | 448 kts | 338° |
| 2026-04-21 20:42 | 35.45352 | -119.23138 | 29638 ft | 446 kts | 348° |
| 2026-04-21 20:42 | 35.48391 | -119.23846 | 29882 ft | 443 kts | 357° |
| 2026-04-21 20:43 | 35.51472 | -119.24139 | 30144 ft | 443 kts | 358° |
| 2026-04-21 20:43 | 35.54559 | -119.24469 | 30379 ft | 445 kts | 358° |
| 2026-04-21 20:43 | 35.57646 | -119.24779 | 30612 ft | 447 kts | 358° |
| 2026-04-21 20:43 | 35.60752 | -119.25085 | 30861 ft | 448 kts | 358° |
| 2026-04-21 20:44 | 35.63889 | -119.25396 | 31086 ft | 450 kts | 359° |
| 2026-04-21 20:44 | 35.66984 | -119.25700 | 31297 ft | 451 kts | 358° |
| 2026-04-21 20:44 | 35.70142 | -119.26010 | 31534 ft | 453 kts | 358° |
| 2026-04-21 20:44 | 35.73270 | -119.26318 | 31756 ft | 454 kts | 359° |
| 2026-04-21 20:45 | 35.76429 | -119.26629 | 31986 ft | 455 kts | 358° |
| 2026-04-21 20:45 | 35.79569 | -119.26938 | 32075 ft | 453 kts | 358° |
| 2026-04-21 20:45 | 35.85867 | -119.27558 | 32079 ft | 454 kts | 359° |
| 2026-04-21 20:46 | 35.92127 | -119.28176 | 32083 ft | 454 kts | 359° |
| 2026-04-21 20:46 | 35.98446 | -119.28801 | 32094 ft | 454 kts | 359° |
| 2026-04-21 20:47 | 36.04754 | -119.29427 | 32096 ft | 454 kts | 359° |
| 2026-04-21 20:47 | 36.11039 | -119.30049 | 32090 ft | 454 kts | 358° |
| 2026-04-21 20:48 | 36.17350 | -119.30676 | 32082 ft | 454 kts | 359° |
| 2026-04-21 20:48 | 36.23642 | -119.31303 | 32080 ft | 454 kts | 358° |
| 2026-04-21 20:49 | 36.29935 | -119.31930 | 32080 ft | 454 kts | 359° |
| 2026-04-21 20:49 | 36.36233 | -119.32559 | 32082 ft | 454 kts | 359° |
| 2026-04-21 20:50 | 36.42558 | -119.33191 | 32082 ft | 454 kts | 359° |
| 2026-04-21 20:50 | 36.48873 | -119.33825 | 32084 ft | 454 kts | 359° |
| 2026-04-21 20:51 | 36.55179 | -119.34457 | 32078 ft | 454 kts | 358° |
| 2026-04-21 20:51 | 36.61457 | -119.35088 | 32074 ft | 454 kts | 359° |
| 2026-04-21 20:52 | 36.67749 | -119.35722 | 32064 ft | 454 kts | 358° |
| 2026-04-21 20:52 | 36.74048 | -119.36356 | 32053 ft | 454 kts | 359° |
| 2026-04-21 20:53 | 36.80394 | -119.36997 | 32040 ft | 454 kts | 359° |
| 2026-04-21 20:53 | 36.86692 | -119.37633 | 32038 ft | 454 kts | 358° |
| 2026-04-21 20:54 | 36.92992 | -119.38273 | 32039 ft | 454 kts | 359° |
| 2026-04-21 20:54 | 36.99282 | -119.38911 | 32036 ft | 453 kts | 359° |
| 2026-04-21 20:55 | 37.05540 | -119.39550 | 32037 ft | 449 kts | 359° |
| 2026-04-21 20:55 | 37.11727 | -119.40182 | 32034 ft | 445 kts | 359° |
| 2026-04-21 20:56 | 37.17923 | -119.40810 | 32031 ft | 444 kts | 359° |
| 2026-04-21 20:56 | 37.24044 | -119.41435 | 32016 ft | 443 kts | 359° |
| 2026-04-21 20:57 | 37.30219 | -119.42065 | 32004 ft | 443 kts | 359° |
| 2026-04-21 20:57 | 37.36405 | -119.42700 | 32004 ft | 443 kts | 359° |
| 2026-04-21 20:58 | 37.42525 | -119.43327 | 32009 ft | 444 kts | 359° |
| 2026-04-21 20:58 | 37.48706 | -119.43963 | 31998 ft | 443 kts | 359° |
| 2026-04-21 20:59 | 37.54897 | -119.44601 | 31981 ft | 445 kts | 359° |
| 2026-04-21 20:59 | 37.61035 | -119.45234 | 31955 ft | 444 kts | 359° |
| 2026-04-21 21:00 | 37.67213 | -119.45875 | 31960 ft | 444 kts | 359° |
| 2026-04-21 21:00 | 37.73409 | -119.46515 | 31956 ft | 444 kts | 359° |
| 2026-04-21 21:01 | 37.79573 | -119.47154 | 31954 ft | 444 kts | 359° |
| 2026-04-21 21:01 | 37.85770 | -119.47799 | 31955 ft | 444 kts | 359° |
| 2026-04-21 21:02 | 37.91929 | -119.48441 | 31948 ft | 444 kts | 359° |
| 2026-04-21 21:02 | 37.98084 | -119.49081 | 31952 ft | 444 kts | 359° |
| 2026-04-21 21:03 | 38.04217 | -119.49722 | 31954 ft | 444 kts | 359° |
| 2026-04-21 21:03 | 38.10421 | -119.50370 | 31959 ft | 444 kts | 359° |
| 2026-04-21 21:04 | 38.16605 | -119.51017 | 31940 ft | 444 kts | 359° |
| 2026-04-21 21:04 | 38.22752 | -119.51662 | 31926 ft | 445 kts | 359° |
| 2026-04-21 21:05 | 38.28963 | -119.52314 | 31916 ft | 445 kts | 359° |
| 2026-04-21 21:05 | 38.35109 | -119.52962 | 31923 ft | 446 kts | 359° |
| 2026-04-21 21:06 | 38.41318 | -119.53619 | 31926 ft | 443 kts | 359° |
| 2026-04-21 21:06 | 38.47459 | -119.54266 | 31922 ft | 445 kts | 359° |
| 2026-04-21 21:07 | 38.53639 | -119.54919 | 31926 ft | 445 kts | 359° |
| 2026-04-21 21:07 | 38.59806 | -119.55575 | 31925 ft | 444 kts | 359° |
| 2026-04-21 21:08 | 38.65964 | -119.56229 | 31928 ft | 444 kts | 359° |
| 2026-04-21 21:08 | 38.72145 | -119.56889 | 31923 ft | 443 kts | 359° |
| 2026-04-21 21:09 | 38.78335 | -119.57546 | 31916 ft | 444 kts | 359° |
| 2026-04-21 21:09 | 38.84501 | -119.58202 | 31914 ft | 445 kts | 359° |
| 2026-04-21 21:10 | 38.90666 | -119.58863 | 31920 ft | 446 kts | 359° |
| 2026-04-21 21:10 | 38.96884 | -119.59528 | 31919 ft | 451 kts | 359° |
| 2026-04-21 21:11 | 39.03166 | -119.60201 | 31922 ft | 454 kts | 359° |
| 2026-04-21 21:11 | 39.09467 | -119.60880 | 31922 ft | 454 kts | 359° |
| 2026-04-21 21:12 | 39.15777 | -119.61560 | 31927 ft | 454 kts | 359° |
| 2026-04-21 21:12 | 39.22091 | -119.62241 | 31930 ft | 454 kts | 359° |
| 2026-04-21 21:13 | 39.28404 | -119.62923 | 31926 ft | 454 kts | 359° |
| 2026-04-21 21:13 | 39.34699 | -119.63605 | 31922 ft | 454 kts | 359° |
| 2026-04-21 21:14 | 39.40965 | -119.64284 | 31919 ft | 453 kts | 359° |
| 2026-04-21 21:14 | 39.47274 | -119.64970 | 31915 ft | 453 kts | 359° |
| 2026-04-21 21:15 | 39.53608 | -119.65649 | 31907 ft | 454 kts | 360° |
| 2026-04-21 21:15 | 39.59898 | -119.65688 | 31903 ft | 452 kts | 2° |
| 2026-04-21 21:16 | 39.66175 | -119.65742 | 31908 ft | 452 kts | 3° |
| 2026-04-21 21:16 | 39.72463 | -119.65803 | 31915 ft | 452 kts | 3° |
| 2026-04-21 21:17 | 39.78754 | -119.65866 | 31918 ft | 452 kts | 3° |
| 2026-04-21 21:17 | 39.85024 | -119.65928 | 31923 ft | 452 kts | 2° |
| 2026-04-21 21:18 | 39.91370 | -119.65993 | 31924 ft | 452 kts | 2° |
| 2026-04-21 21:18 | 39.97615 | -119.66057 | 31923 ft | 452 kts | 2° |
| 2026-04-21 21:19 | 40.03950 | -119.66121 | 31923 ft | 452 kts | 2° |
| 2026-04-21 21:19 | 40.10200 | -119.66184 | 31923 ft | 452 kts | 2° |
| 2026-04-21 21:20 | 40.16501 | -119.66249 | 31925 ft | 452 kts | 3° |
| 2026-04-21 21:20 | 40.22788 | -119.66313 | 31925 ft | 452 kts | 2° |
| 2026-04-21 21:21 | 40.29082 | -119.66378 | 31925 ft | 452 kts | 2° |
| 2026-04-21 21:21 | 40.35387 | -119.66443 | 31926 ft | 452 kts | 3° |
| 2026-04-21 21:22 | 40.41701 | -119.66507 | 31932 ft | 452 kts | 3° |
| 2026-04-21 21:22 | 40.47969 | -119.66572 | 31939 ft | 452 kts | 3° |
| 2026-04-21 21:23 | 40.54253 | -119.66637 | 31941 ft | 451 kts | 2° |
| 2026-04-21 21:23 | 40.60592 | -119.66702 | 31942 ft | 452 kts | 2° |
| 2026-04-21 21:24 | 40.66842 | -119.66766 | 31942 ft | 451 kts | 2° |
| 2026-04-21 21:24 | 40.73175 | -119.66833 | 31946 ft | 452 kts | 3° |
| 2026-04-21 21:25 | 40.79424 | -119.66898 | 31950 ft | 451 kts | 3° |
| 2026-04-21 21:25 | 40.85748 | -119.66963 | 31945 ft | 451 kts | 2° |
| 2026-04-21 21:26 | 40.92025 | -119.67029 | 31934 ft | 452 kts | 3° |
| 2026-04-21 21:26 | 40.98304 | -119.67094 | 31925 ft | 449 kts | 2° |
| 2026-04-21 21:27 | 41.04488 | -119.67146 | 31923 ft | 444 kts | 1° |
| 2026-04-21 21:27 | 41.10666 | -119.67209 | 31925 ft | 445 kts | 0° |
| 2026-04-21 21:28 | 41.16903 | -119.67284 | 31927 ft | 447 kts | 360° |
| 2026-04-21 21:29 | 41.26214 | -119.67387 | 31927 ft | 446 kts | 360° |
| 2026-04-21 21:29 | 41.32443 | -119.67454 | 31926 ft | 446 kts | 360° |
| 2026-04-21 21:30 | 41.38665 | -119.67520 | 31926 ft | 446 kts | 360° |
| 2026-04-21 21:30 | 41.44894 | -119.67587 | 31926 ft | 446 kts | 360° |
| 2026-04-21 21:31 | 41.51092 | -119.67651 | 31925 ft | 446 kts | 360° |
| 2026-04-21 21:31 | 41.57318 | -119.67718 | 31923 ft | 446 kts | 360° |
| 2026-04-21 21:32 | 41.63554 | -119.67785 | 31922 ft | 446 kts | 360° |
| 2026-04-21 21:32 | 41.69749 | -119.67851 | 31919 ft | 446 kts | 360° |
| 2026-04-21 21:33 | 41.75961 | -119.67917 | 31917 ft | 446 kts | 360° |
| 2026-04-21 21:33 | 41.82205 | -119.67984 | 31916 ft | 446 kts | 360° |
| 2026-04-21 21:34 | 41.88398 | -119.68051 | 31915 ft | 446 kts | 360° |
| 2026-04-21 21:34 | 41.94562 | -119.68117 | 31916 ft | 446 kts | 360° |
| 2026-04-21 21:35 | 42.00843 | -119.68185 | 31915 ft | 447 kts | 360° |
| 2026-04-21 21:35 | 42.07041 | -119.68253 | 31915 ft | 446 kts | 360° |
| 2026-04-21 21:36 | 42.13268 | -119.68320 | 31919 ft | 446 kts | 360° |
| 2026-04-21 21:36 | 42.19453 | -119.68387 | 31918 ft | 446 kts | 360° |
| 2026-04-21 21:37 | 42.25689 | -119.68455 | 31918 ft | 446 kts | 360° |
| 2026-04-21 21:37 | 42.31898 | -119.68523 | 31918 ft | 447 kts | 360° |
| 2026-04-21 21:38 | 42.38113 | -119.68591 | 31917 ft | 447 kts | 360° |
| 2026-04-21 21:38 | 42.44343 | -119.68658 | 31917 ft | 447 kts | 360° |
| 2026-04-21 21:39 | 42.50579 | -119.68727 | 31917 ft | 447 kts | 360° |
| 2026-04-21 21:39 | 42.56809 | -119.68795 | 31917 ft | 447 kts | 360° |
| 2026-04-21 21:40 | 42.63041 | -119.68863 | 31913 ft | 447 kts | 360° |
| 2026-04-21 21:40 | 42.69240 | -119.68932 | 31909 ft | 447 kts | 360° |
| 2026-04-21 21:41 | 42.75481 | -119.69001 | 31906 ft | 447 kts | 360° |
| 2026-04-21 21:41 | 42.81686 | -119.69070 | 31905 ft | 447 kts | 360° |
| 2026-04-21 21:42 | 42.87880 | -119.69138 | 31906 ft | 447 kts | 360° |
| 2026-04-21 21:42 | 42.94087 | -119.69202 | 31897 ft | 442 kts | 359° |
| 2026-04-21 21:43 | 43.00212 | -119.69263 | 31887 ft | 440 kts | 358° |
| 2026-04-21 21:43 | 43.06340 | -119.69330 | 31880 ft | 442 kts | 357° |
| 2026-04-21 21:44 | 43.12524 | -119.69410 | 31883 ft | 441 kts | 357° |
| 2026-04-21 21:44 | 43.18670 | -119.69482 | 31883 ft | 442 kts | 357° |
| 2026-04-21 21:45 | 43.24804 | -119.69551 | 31883 ft | 441 kts | 357° |
| 2026-04-21 21:45 | 43.30973 | -119.69621 | 31882 ft | 441 kts | 357° |
| 2026-04-21 21:46 | 43.37128 | -119.69690 | 31882 ft | 441 kts | 357° |
| 2026-04-21 21:46 | 43.43271 | -119.69759 | 31882 ft | 442 kts | 357° |
| 2026-04-21 21:47 | 43.49431 | -119.69829 | 31882 ft | 442 kts | 357° |
| 2026-04-21 21:47 | 43.55566 | -119.69899 | 31881 ft | 441 kts | 357° |
| 2026-04-21 21:48 | 43.61713 | -119.69968 | 31881 ft | 442 kts | 357° |
| 2026-04-21 21:48 | 43.67886 | -119.70039 | 31881 ft | 441 kts | 357° |
| 2026-04-21 21:49 | 43.74005 | -119.70110 | 31881 ft | 442 kts | 357° |
| 2026-04-21 21:49 | 43.80175 | -119.70179 | 31880 ft | 441 kts | 357° |
| 2026-04-21 21:50 | 43.86344 | -119.70251 | 31878 ft | 442 kts | 357° |
| 2026-04-21 21:50 | 43.92489 | -119.70321 | 31853 ft | 442 kts | 357° |
| 2026-04-21 21:51 | 43.98632 | -119.70392 | 31828 ft | 442 kts | 357° |
| 2026-04-21 21:51 | 44.04776 | -119.70462 | 31816 ft | 442 kts | 357° |
| 2026-04-21 21:52 | 44.10979 | -119.70534 | 31816 ft | 442 kts | 357° |
| 2026-04-21 21:52 | 44.17130 | -119.70606 | 31819 ft | 442 kts | 357° |
| 2026-04-21 21:53 | 44.23291 | -119.70676 | 31819 ft | 442 kts | 357° |
| 2026-04-21 21:53 | 44.29447 | -119.70749 | 31818 ft | 442 kts | 357° |
| 2026-04-21 21:54 | 44.35640 | -119.70821 | 31854 ft | 445 kts | 357° |
| 2026-04-21 21:54 | 44.38735 | -119.70857 | 32138 ft | 445 kts | 357° |
| 2026-04-21 21:54 | 44.41822 | -119.70891 | 32527 ft | 443 kts | 357° |
| 2026-04-21 21:54 | 44.44893 | -119.70927 | 32888 ft | 441 kts | 357° |
| 2026-04-21 21:55 | 44.47936 | -119.70963 | 33195 ft | 440 kts | 357° |
| 2026-04-21 21:55 | 44.50977 | -119.70998 | 33471 ft | 439 kts | 357° |
| 2026-04-21 21:55 | 44.54074 | -119.71035 | 33754 ft | 439 kts | 357° |
| 2026-04-21 21:55 | 44.57131 | -119.71071 | 33994 ft | 439 kts | 357° |
| 2026-04-21 21:56 | 44.60179 | -119.71107 | 34244 ft | 438 kts | 357° |
| 2026-04-21 21:56 | 44.63248 | -119.71101 | 34487 ft | 438 kts | 0° |
| 2026-04-21 21:56 | 44.66248 | -119.70579 | 34669 ft | 441 kts | 9° |
| 2026-04-21 21:56 | 44.69245 | -119.69494 | 34875 ft | 441 kts | 12° |
| 2026-04-21 21:57 | 44.72205 | -119.68438 | 35079 ft | 441 kts | 11° |
| 2026-04-21 21:57 | 44.75185 | -119.67361 | 35294 ft | 440 kts | 12° |
| 2026-04-21 21:57 | 44.78159 | -119.66272 | 35513 ft | 439 kts | 11° |
| 2026-04-21 21:57 | 44.81112 | -119.65190 | 35706 ft | 439 kts | 12° |
| 2026-04-21 21:58 | 44.84079 | -119.64099 | 35888 ft | 439 kts | 12° |
| 2026-04-21 21:58 | 44.87023 | -119.63013 | 36072 ft | 438 kts | 11° |
| 2026-04-21 21:58 | 44.90003 | -119.61915 | 36247 ft | 438 kts | 12° |
| 2026-04-21 21:58 | 44.92943 | -119.60829 | 36401 ft | 438 kts | 12° |
| 2026-04-21 21:59 | 44.95861 | -119.59750 | 36543 ft | 438 kts | 12° |
| 2026-04-21 21:59 | 44.98837 | -119.58648 | 36681 ft | 438 kts | 11° |
| 2026-04-21 21:59 | 45.01779 | -119.57555 | 36784 ft | 437 kts | 11° |
| 2026-04-21 22:00 | 45.07659 | -119.55370 | 36782 ft | 438 kts | 11° |
| 2026-04-21 22:00 | 45.13573 | -119.53172 | 36768 ft | 439 kts | 10° |
| 2026-04-21 22:01 | 45.19505 | -119.50965 | 36765 ft | 439 kts | 10° |
| 2026-04-21 22:01 | 45.25402 | -119.48764 | 36765 ft | 439 kts | 10° |
| 2026-04-21 22:02 | 45.31310 | -119.46552 | 36765 ft | 439 kts | 10° |
| 2026-04-21 22:02 | 45.37197 | -119.44344 | 36765 ft | 439 kts | 10° |
| 2026-04-21 22:03 | 45.43157 | -119.42104 | 36765 ft | 439 kts | 10° |
| 2026-04-21 22:03 | 45.49044 | -119.39885 | 36765 ft | 439 kts | 10° |
| 2026-04-21 22:04 | 45.54955 | -119.37653 | 36764 ft | 439 kts | 10° |
| 2026-04-21 22:04 | 45.60874 | -119.35413 | 36764 ft | 439 kts | 10° |
| 2026-04-21 22:05 | 45.66762 | -119.33180 | 36759 ft | 439 kts | 11° |
| 2026-04-21 22:05 | 45.72684 | -119.30930 | 36759 ft | 440 kts | 11° |
| 2026-04-21 22:06 | 45.78595 | -119.28679 | 36759 ft | 440 kts | 11° |
| 2026-04-21 22:06 | 45.84533 | -119.26411 | 36759 ft | 439 kts | 11° |
| 2026-04-21 22:07 | 45.90424 | -119.24158 | 36759 ft | 440 kts | 11° |
| 2026-04-21 22:07 | 45.96345 | -119.21888 | 36750 ft | 440 kts | 11° |
| 2026-04-21 22:08 | 46.02265 | -119.19613 | 36732 ft | 439 kts | 11° |
| 2026-04-21 22:08 | 46.08174 | -119.17337 | 36716 ft | 440 kts | 11° |
| 2026-04-21 22:09 | 46.14098 | -119.15050 | 36718 ft | 439 kts | 11° |
| 2026-04-21 22:09 | 46.20018 | -119.12760 | 36719 ft | 439 kts | 11° |
| 2026-04-21 22:10 | 46.25912 | -119.10475 | 36720 ft | 440 kts | 11° |
| 2026-04-21 22:10 | 46.31836 | -119.08173 | 36722 ft | 439 kts | 11° |
| 2026-04-21 22:11 | 46.37748 | -119.05871 | 36723 ft | 439 kts | 11° |
| 2026-04-21 22:11 | 46.43660 | -119.03564 | 36725 ft | 439 kts | 11° |
| 2026-04-21 22:12 | 46.49548 | -119.01260 | 36725 ft | 439 kts | 11° |
| 2026-04-21 22:12 | 46.55451 | -118.98946 | 36725 ft | 438 kts | 11° |
| 2026-04-21 22:13 | 46.61315 | -118.96641 | 36724 ft | 438 kts | 11° |
| 2026-04-21 22:13 | 46.67228 | -118.94313 | 36725 ft | 437 kts | 11° |
| 2026-04-21 22:14 | 46.73056 | -118.92013 | 36725 ft | 436 kts | 11° |
| 2026-04-21 22:14 | 46.78913 | -118.89695 | 36721 ft | 436 kts | 11° |
| 2026-04-21 22:15 | 46.84768 | -118.87374 | 36718 ft | 436 kts | 11° |
| 2026-04-21 22:15 | 46.90631 | -118.85041 | 36715 ft | 434 kts | 11° |
| 2026-04-21 22:16 | 46.96462 | -118.82714 | 36713 ft | 432 kts | 10° |
| 2026-04-21 22:16 | 47.02237 | -118.80407 | 36697 ft | 430 kts | 10° |
| 2026-04-21 22:17 | 47.08011 | -118.78101 | 36694 ft | 429 kts | 9° |
| 2026-04-21 22:17 | 47.13761 | -118.75799 | 36704 ft | 430 kts | 9° |
| 2026-04-21 22:18 | 47.19513 | -118.73489 | 36702 ft | 429 kts | 9° |
| 2026-04-21 22:18 | 47.25294 | -118.71159 | 36702 ft | 429 kts | 9° |
| 2026-04-21 22:19 | 47.31045 | -118.68838 | 36701 ft | 429 kts | 9° |
| 2026-04-21 22:19 | 47.36810 | -118.66505 | 36701 ft | 429 kts | 9° |
| 2026-04-21 22:20 | 47.42569 | -118.64168 | 36701 ft | 429 kts | 9° |
| 2026-04-21 22:20 | 47.48344 | -118.61822 | 36700 ft | 429 kts | 9° |
| 2026-04-21 22:21 | 47.54094 | -118.59480 | 36700 ft | 429 kts | 9° |
| 2026-04-21 22:21 | 47.59843 | -118.57132 | 36700 ft | 429 kts | 9° |
| 2026-04-21 22:22 | 47.65588 | -118.54781 | 36700 ft | 429 kts | 9° |
| 2026-04-21 22:22 | 47.71386 | -118.52402 | 36709 ft | 429 kts | 9° |
| 2026-04-21 22:23 | 47.77149 | -118.50034 | 36726 ft | 429 kts | 9° |
| 2026-04-21 22:23 | 47.82909 | -118.47659 | 36740 ft | 429 kts | 9° |
| 2026-04-21 22:24 | 47.88638 | -118.45293 | 36744 ft | 429 kts | 9° |
| 2026-04-21 22:24 | 47.94408 | -118.42903 | 36743 ft | 429 kts | 9° |
| 2026-04-21 22:25 | 48.00149 | -118.40522 | 36742 ft | 429 kts | 9° |
| 2026-04-21 22:25 | 48.05927 | -118.38118 | 36739 ft | 429 kts | 9° |
| 2026-04-21 22:26 | 48.11668 | -118.35725 | 36740 ft | 429 kts | 9° |
| 2026-04-21 22:26 | 48.17401 | -118.33329 | 36737 ft | 430 kts | 10° |
| 2026-04-21 22:27 | 48.23158 | -118.30919 | 36737 ft | 429 kts | 10° |
| 2026-04-21 22:27 | 48.28925 | -118.28498 | 36730 ft | 430 kts | 10° |
| 2026-04-21 22:28 | 48.34699 | -118.26069 | 36724 ft | 430 kts | 10° |
| 2026-04-21 22:28 | 48.40455 | -118.23640 | 36724 ft | 430 kts | 10° |
| 2026-04-21 22:29 | 48.46234 | -118.21197 | 36723 ft | 430 kts | 10° |
| 2026-04-21 22:29 | 48.51989 | -118.18758 | 36719 ft | 430 kts | 10° |
| 2026-04-21 22:30 | 48.57749 | -118.16312 | 36710 ft | 429 kts | 10° |
| 2026-04-21 22:30 | 48.63488 | -118.13869 | 36699 ft | 430 kts | 10° |
| 2026-04-21 22:31 | 48.69261 | -118.11404 | 36696 ft | 430 kts | 10° |
| 2026-04-21 22:31 | 48.75007 | -118.08946 | 36695 ft | 430 kts | 10° |
| 2026-04-21 22:32 | 48.80745 | -118.06485 | 36694 ft | 430 kts | 10° |
| 2026-04-21 22:32 | 48.86479 | -118.04020 | 36694 ft | 428 kts | 10° |
| 2026-04-21 22:33 | 48.92215 | -118.01550 | 36695 ft | 429 kts | 10° |
| 2026-04-21 22:33 | 48.97876 | -117.98502 | 36703 ft | 437 kts | 18° |
| 2026-04-21 22:34 | 49.03468 | -117.94707 | 36696 ft | 441 kts | 17° |
| 2026-04-21 22:34 | 49.09096 | -117.90842 | 36695 ft | 447 kts | 17° |
| 2026-04-21 22:35 | 49.14811 | -117.86903 | 36701 ft | 451 kts | 17° |
| 2026-04-21 22:35 | 49.20540 | -117.82940 | 36698 ft | 452 kts | 17° |
| 2026-04-21 22:36 | 49.29092 | -117.76999 | 36702 ft | 451 kts | 17° |
| 2026-04-21 22:36 | 49.34838 | -117.72997 | 36701 ft | 450 kts | 17° |
| 2026-04-21 22:37 | 49.40546 | -117.69007 | 36701 ft | 451 kts | 17° |
| 2026-04-21 22:37 | 49.46266 | -117.65002 | 36703 ft | 451 kts | 17° |
| 2026-04-21 22:38 | 49.51983 | -117.60986 | 36698 ft | 452 kts | 17° |
| 2026-04-21 22:38 | 49.57714 | -117.56950 | 36703 ft | 451 kts | 17° |
| 2026-04-21 22:39 | 49.63400 | -117.52937 | 36700 ft | 452 kts | 17° |
| 2026-04-21 22:39 | 49.69121 | -117.48886 | 36700 ft | 450 kts | 17° |
| 2026-04-21 22:40 | 49.74845 | -117.44827 | 36708 ft | 452 kts | 17° |
| 2026-04-21 22:40 | 49.80539 | -117.40772 | 36699 ft | 450 kts | 17° |
| 2026-04-21 22:41 | 49.86253 | -117.36697 | 36703 ft | 450 kts | 17° |
| 2026-04-21 22:41 | 49.91946 | -117.32627 | 36693 ft | 452 kts | 17° |
| 2026-04-21 22:42 | 49.97656 | -117.28530 | 36691 ft | 452 kts | 17° |
| 2026-04-21 22:42 | 50.03337 | -117.24449 | 36692 ft | 452 kts | 17° |
| 2026-04-21 22:43 | 50.09057 | -117.20324 | 36692 ft | 452 kts | 17° |
| 2026-04-21 22:43 | 50.14771 | -117.16194 | 36716 ft | 453 kts | 17° |
| 2026-04-21 22:44 | 50.20472 | -117.12062 | 36744 ft | 452 kts | 17° |
| 2026-04-21 22:44 | 50.26134 | -117.07946 | 36771 ft | 451 kts | 17° |
| 2026-04-21 22:45 | 50.31842 | -117.03786 | 36773 ft | 451 kts | 17° |
| 2026-04-21 22:45 | 50.37517 | -116.99641 | 36771 ft | 448 kts | 17° |
| 2026-04-21 22:46 | 50.43148 | -116.95516 | 36773 ft | 447 kts | 16° |
| 2026-04-21 22:46 | 50.48811 | -116.91360 | 36773 ft | 448 kts | 16° |
| 2026-04-21 22:47 | 50.54430 | -116.87221 | 36769 ft | 446 kts | 15° |
| 2026-04-21 22:47 | 50.60064 | -116.83067 | 36776 ft | 447 kts | 15° |
| 2026-04-21 22:48 | 50.65677 | -116.78914 | 36772 ft | 446 kts | 16° |
| 2026-04-21 22:48 | 50.71325 | -116.74720 | 36772 ft | 447 kts | 16° |
| 2026-04-21 22:49 | 50.76925 | -116.70554 | 36771 ft | 446 kts | 16° |
| 2026-04-21 22:49 | 50.82525 | -116.66377 | 36771 ft | 446 kts | 16° |
| 2026-04-21 22:50 | 50.88145 | -116.62170 | 36769 ft | 446 kts | 16° |
| 2026-04-21 22:50 | 50.93615 | -116.57494 | 36778 ft | 448 kts | 21° |
| 2026-04-21 22:51 | 50.98970 | -116.52502 | 36771 ft | 445 kts | 22° |
| 2026-04-21 22:51 | 51.04267 | -116.47517 | 36772 ft | 441 kts | 22° |
| 2026-04-21 22:52 | 51.09565 | -116.42499 | 36769 ft | 442 kts | 22° |
| 2026-04-21 22:52 | 51.14801 | -116.37534 | 36772 ft | 440 kts | 22° |
| 2026-04-21 22:53 | 51.20058 | -116.32539 | 36770 ft | 443 kts | 23° |
| 2026-04-21 22:53 | 51.25367 | -116.27475 | 36767 ft | 440 kts | 24° |
| 2026-04-21 22:54 | 51.30644 | -116.22433 | 36773 ft | 442 kts | 24° |
| 2026-04-21 22:54 | 51.35921 | -116.17373 | 36770 ft | 442 kts | 23° |
| 2026-04-21 22:55 | 51.41153 | -116.12345 | 36769 ft | 440 kts | 24° |
| 2026-04-21 22:55 | 51.46349 | -116.07336 | 36772 ft | 441 kts | 23° |
| 2026-04-21 22:56 | 51.51630 | -116.02233 | 36773 ft | 440 kts | 23° |
| 2026-04-21 22:56 | 51.56900 | -115.97129 | 36768 ft | 441 kts | 23° |
| 2026-04-21 22:57 | 51.62128 | -115.92048 | 36768 ft | 442 kts | 23° |
| 2026-04-21 22:57 | 51.67392 | -115.86918 | 36770 ft | 441 kts | 23° |
| 2026-04-21 22:58 | 51.72642 | -115.81791 | 36770 ft | 442 kts | 23° |
| 2026-04-21 22:58 | 51.77903 | -115.76635 | 36771 ft | 442 kts | 23° |
| 2026-04-21 22:59 | 51.83123 | -115.71510 | 36768 ft | 442 kts | 23° |
| 2026-04-21 22:59 | 51.88371 | -115.66338 | 36768 ft | 441 kts | 23° |
| 2026-04-21 23:00 | 51.93624 | -115.61150 | 36777 ft | 442 kts | 23° |
| 2026-04-21 23:00 | 51.98846 | -115.55978 | 36778 ft | 441 kts | 24° |
| 2026-04-21 23:01 | 52.04105 | -115.50753 | 36785 ft | 441 kts | 23° |
| 2026-04-21 23:01 | 52.06736 | -115.48138 | 36656 ft | 442 kts | 23° |
| 2026-04-21 23:01 | 52.09349 | -115.45527 | 36664 ft | 441 kts | 23° |
| 2026-04-21 23:02 | 52.14558 | -115.40327 | 36675 ft | 442 kts | 23° |
| 2026-04-21 23:02 | 52.19822 | -115.35055 | 36678 ft | 440 kts | 24° |
| 2026-04-21 23:03 | 52.25038 | -115.29816 | 36691 ft | 441 kts | 24° |
| 2026-04-21 23:03 | 52.30263 | -115.24553 | 36696 ft | 442 kts | 24° |
| 2026-04-21 23:04 | 52.35529 | -115.19234 | 36710 ft | 442 kts | 24° |
| 2026-04-21 23:04 | 52.40712 | -115.13985 | 36704 ft | 443 kts | 24° |
| 2026-04-21 23:05 | 52.45982 | -115.08633 | 36706 ft | 446 kts | 24° |
| 2026-04-21 23:05 | 52.51278 | -115.03237 | 36701 ft | 448 kts | 24° |
| 2026-04-21 23:06 | 52.56568 | -114.97830 | 36706 ft | 449 kts | 24° |
| 2026-04-21 23:06 | 52.61892 | -114.92375 | 36707 ft | 448 kts | 24° |
| 2026-04-21 23:07 | 52.67194 | -114.86930 | 36706 ft | 450 kts | 24° |
| 2026-04-21 23:07 | 52.72482 | -114.81477 | 36701 ft | 450 kts | 24° |
| 2026-04-21 23:08 | 52.77805 | -114.75975 | 36705 ft | 450 kts | 24° |
| 2026-04-21 23:08 | 52.83099 | -114.70490 | 36706 ft | 449 kts | 24° |
| 2026-04-21 23:09 | 52.88394 | -114.64983 | 36707 ft | 449 kts | 24° |
| 2026-04-21 23:09 | 52.93677 | -114.59477 | 36706 ft | 450 kts | 24° |
| 2026-04-21 23:10 | 52.98946 | -114.53966 | 36707 ft | 448 kts | 25° |
| 2026-04-21 23:10 | 53.04176 | -114.48489 | 36704 ft | 440 kts | 25° |
| 2026-04-21 23:11 | 53.09329 | -114.43070 | 36704 ft | 436 kts | 26° |
| 2026-04-21 23:11 | 53.14438 | -114.37680 | 36711 ft | 434 kts | 26° |
| 2026-04-21 23:12 | 53.19530 | -114.32288 | 36708 ft | 435 kts | 27° |
| 2026-04-21 23:12 | 53.24627 | -114.26880 | 36706 ft | 435 kts | 27° |
| 2026-04-21 23:13 | 53.29722 | -114.21458 | 36711 ft | 434 kts | 27° |
| 2026-04-21 23:13 | 53.34837 | -114.16000 | 36727 ft | 435 kts | 27° |
| 2026-04-21 23:14 | 53.39955 | -114.10523 | 36739 ft | 435 kts | 27° |
| 2026-04-21 23:14 | 53.45045 | -114.05061 | 36753 ft | 435 kts | 27° |
| 2026-04-21 23:15 | 53.50147 | -113.99571 | 36764 ft | 435 kts | 27° |
| 2026-04-21 23:15 | 53.55253 | -113.94061 | 36770 ft | 435 kts | 27° |
| 2026-04-21 23:16 | 53.60300 | -113.88596 | 36771 ft | 435 kts | 27° |
| 2026-04-21 23:16 | 53.65414 | -113.83045 | 36779 ft | 434 kts | 27° |
| 2026-04-21 23:17 | 53.70464 | -113.77548 | 36781 ft | 434 kts | 27° |
| 2026-04-21 23:17 | 53.75552 | -113.71990 | 36780 ft | 434 kts | 27° |
| 2026-04-21 23:18 | 53.80612 | -113.66447 | 36778 ft | 435 kts | 27° |
| 2026-04-21 23:18 | 53.85714 | -113.60846 | 36779 ft | 435 kts | 27° |
| 2026-04-21 23:19 | 53.90763 | -113.55282 | 36777 ft | 434 kts | 27° |
| 2026-04-21 23:19 | 53.95845 | -113.49670 | 36779 ft | 435 kts | 27° |
| 2026-04-21 23:20 | 54.00877 | -113.44089 | 36779 ft | 435 kts | 27° |
| 2026-04-21 23:20 | 54.05949 | -113.38455 | 36779 ft | 434 kts | 27° |
| 2026-04-21 23:21 | 54.11008 | -113.32815 | 36776 ft | 435 kts | 27° |
| 2026-04-21 23:21 | 54.16097 | -113.27126 | 36780 ft | 436 kts | 28° |
| 2026-04-21 23:22 | 54.21137 | -113.21474 | 36779 ft | 435 kts | 27° |
| 2026-04-21 23:22 | 54.26206 | -113.15775 | 36782 ft | 436 kts | 28° |
| 2026-04-21 23:23 | 54.31253 | -113.10081 | 36781 ft | 435 kts | 27° |
| 2026-04-21 23:23 | 54.36306 | -113.04367 | 36779 ft | 435 kts | 28° |
| 2026-04-21 23:24 | 54.41362 | -112.98630 | 36780 ft | 437 kts | 28° |
| 2026-04-21 23:24 | 54.46449 | -112.92841 | 36778 ft | 439 kts | 28° |
| 2026-04-21 23:25 | 54.51522 | -112.87049 | 36782 ft | 442 kts | 28° |
| 2026-04-21 23:25 | 54.56670 | -112.81155 | 36778 ft | 444 kts | 28° |
| 2026-04-21 23:26 | 54.61824 | -112.75230 | 36783 ft | 446 kts | 28° |
| 2026-04-21 23:26 | 54.66989 | -112.69280 | 36784 ft | 449 kts | 28° |
| 2026-04-21 23:27 | 54.72172 | -112.63286 | 36781 ft | 449 kts | 28° |
| 2026-04-21 23:27 | 54.77346 | -112.57286 | 36777 ft | 448 kts | 28° |
| 2026-04-21 23:28 | 54.82515 | -112.51277 | 36781 ft | 449 kts | 28° |
| 2026-04-21 23:28 | 54.87723 | -112.45200 | 36780 ft | 449 kts | 28° |
| 2026-04-21 23:29 | 54.92862 | -112.39188 | 36789 ft | 446 kts | 28° |
| 2026-04-21 23:29 | 54.97989 | -112.33169 | 36811 ft | 443 kts | 30° |
| 2026-04-21 23:30 | 55.03106 | -112.27142 | 36839 ft | 441 kts | 30° |
| 2026-04-21 23:30 | 55.08160 | -112.21169 | 36849 ft | 440 kts | 30° |
| 2026-04-21 23:31 | 55.13287 | -112.15292 | 36854 ft | 437 kts | 24° |
| 2026-04-21 23:31 | 55.18908 | -112.11445 | 36862 ft | 433 kts | 16° |
| 2026-04-21 23:32 | 55.24558 | -112.07754 | 36855 ft | 433 kts | 17° |
| 2026-04-21 23:32 | 55.30183 | -112.04069 | 36855 ft | 433 kts | 17° |
| 2026-04-21 23:33 | 55.35801 | -112.00368 | 36855 ft | 433 kts | 17° |
| 2026-04-21 23:33 | 55.41444 | -111.96644 | 36854 ft | 433 kts | 17° |
| 2026-04-21 23:34 | 55.47102 | -111.92897 | 36854 ft | 433 kts | 17° |
| 2026-04-21 23:34 | 55.52734 | -111.89155 | 36854 ft | 433 kts | 17° |
| 2026-04-21 23:35 | 55.58367 | -111.85399 | 36854 ft | 433 kts | 17° |
| 2026-04-21 23:35 | 55.63985 | -111.81644 | 36852 ft | 432 kts | 17° |
| 2026-04-21 23:36 | 55.69623 | -111.77865 | 36853 ft | 433 kts | 17° |
| 2026-04-21 23:36 | 55.75226 | -111.74095 | 36852 ft | 433 kts | 17° |
| 2026-04-21 23:37 | 55.80853 | -111.70298 | 36853 ft | 433 kts | 17° |
| 2026-04-21 23:37 | 55.86460 | -111.66504 | 36851 ft | 433 kts | 17° |
| 2026-04-21 23:38 | 55.92119 | -111.62662 | 36851 ft | 434 kts | 17° |
| 2026-04-21 23:38 | 55.97726 | -111.58843 | 36851 ft | 433 kts | 17° |
| 2026-04-21 23:39 | 56.03369 | -111.54989 | 36852 ft | 433 kts | 17° |
| 2026-04-21 23:39 | 56.08985 | -111.51140 | 36851 ft | 433 kts | 17° |
| 2026-04-21 23:40 | 56.14598 | -111.47281 | 36858 ft | 433 kts | 17° |
| 2026-04-21 23:40 | 56.20223 | -111.43403 | 36858 ft | 433 kts | 17° |
| 2026-04-21 23:41 | 56.25838 | -111.39519 | 36857 ft | 433 kts | 17° |
| 2026-04-21 23:41 | 56.31468 | -111.35611 | 36856 ft | 433 kts | 17° |
| 2026-04-21 23:42 | 56.37067 | -111.31712 | 36854 ft | 433 kts | 17° |
| 2026-04-21 23:42 | 56.42696 | -111.27782 | 36853 ft | 433 kts | 17° |
| 2026-04-21 23:43 | 56.48315 | -111.23846 | 36853 ft | 434 kts | 17° |
| 2026-04-21 23:43 | 56.53920 | -111.19907 | 36852 ft | 434 kts | 18° |
| 2026-04-21 23:44 | 56.59540 | -111.15944 | 36852 ft | 434 kts | 17° |
| 2026-04-21 23:44 | 56.64962 | -111.11032 | 36861 ft | 441 kts | 32° |
| 2026-04-21 23:45 | 56.71751 | -110.99408 | 36850 ft | 449 kts | 41° |
| 2026-04-21 23:46 | 56.76168 | -110.91317 | 36852 ft | 452 kts | 42° |
| 2026-04-21 23:46 | 56.80616 | -110.83107 | 36856 ft | 455 kts | 43° |
| 2026-04-21 23:47 | 56.85034 | -110.74905 | 36855 ft | 457 kts | 42° |
| 2026-04-21 23:47 | 56.89523 | -110.66552 | 36857 ft | 460 kts | 43° |
| 2026-04-21 23:48 | 56.94006 | -110.58175 | 36853 ft | 460 kts | 43° |
| 2026-04-21 23:48 | 56.98440 | -110.49863 | 36853 ft | 459 kts | 42° |
| 2026-04-21 23:49 | 57.02901 | -110.41465 | 36854 ft | 457 kts | 42° |
| 2026-04-21 23:49 | 57.07325 | -110.33111 | 36851 ft | 455 kts | 43° |
| 2026-04-21 23:50 | 57.11698 | -110.24824 | 36854 ft | 452 kts | 43° |
| 2026-04-21 23:50 | 57.16074 | -110.16504 | 36854 ft | 452 kts | 43° |
| 2026-04-21 23:51 | 57.20443 | -110.08164 | 36855 ft | 452 kts | 43° |
| 2026-04-21 23:51 | 57.24802 | -109.99814 | 36854 ft | 452 kts | 43° |
| 2026-04-21 23:52 | 57.29163 | -109.91427 | 36854 ft | 452 kts | 43° |
| 2026-04-21 23:52 | 57.33499 | -109.83059 | 36854 ft | 452 kts | 43° |
| 2026-04-21 23:53 | 57.37848 | -109.74635 | 36854 ft | 452 kts | 43° |
| 2026-04-21 23:53 | 57.42202 | -109.66170 | 36855 ft | 452 kts | 43° |
| 2026-04-21 23:54 | 57.46541 | -109.57703 | 36860 ft | 452 kts | 43° |
| 2026-04-21 23:54 | 57.50870 | -109.49224 | 36863 ft | 452 kts | 43° |
| 2026-04-21 23:55 | 57.55193 | -109.40726 | 36862 ft | 452 kts | 43° |
| 2026-04-21 23:55 | 57.59494 | -109.32240 | 36860 ft | 453 kts | 44° |
| 2026-04-21 23:56 | 57.63828 | -109.23657 | 36870 ft | 453 kts | 44° |
| 2026-04-21 23:56 | 57.68142 | -109.15086 | 36867 ft | 455 kts | 44° |
| 2026-04-21 23:57 | 57.72492 | -109.06415 | 36869 ft | 458 kts | 44° |
| 2026-04-21 23:57 | 57.76843 | -108.97707 | 36871 ft | 461 kts | 45° |
| 2026-04-21 23:58 | 57.81224 | -108.88889 | 36875 ft | 464 kts | 45° |
| 2026-04-21 23:58 | 57.85640 | -108.79971 | 36875 ft | 467 kts | 45° |
| 2026-04-21 23:59 | 57.90044 | -108.71049 | 36871 ft | 467 kts | 45° |
| 2026-04-21 23:59 | 57.94456 | -108.62074 | 36873 ft | 466 kts | 45° |
| 2026-04-22 00:00 | 57.98854 | -108.53095 | 36873 ft | 466 kts | 45° |
| 2026-04-22 00:00 | 58.03237 | -108.44112 | 36873 ft | 466 kts | 45° |
| 2026-04-22 00:01 | 58.07622 | -108.35088 | 36874 ft | 466 kts | 45° |
| 2026-04-22 00:01 | 58.11992 | -108.26061 | 36871 ft | 467 kts | 46° |
| 2026-04-22 00:02 | 58.16378 | -108.16964 | 36814 ft | 467 kts | 46° |
| 2026-04-22 00:02 | 58.20729 | -108.07906 | 36768 ft | 466 kts | 46° |
| 2026-04-22 00:03 | 58.25080 | -107.98811 | 36763 ft | 466 kts | 46° |
| 2026-04-22 00:03 | 58.29474 | -107.89591 | 36762 ft | 466 kts | 46° |
| 2026-04-22 00:04 | 58.33816 | -107.80441 | 36762 ft | 466 kts | 46° |
| 2026-04-22 00:04 | 58.38176 | -107.71219 | 36762 ft | 466 kts | 46° |
| 2026-04-22 00:05 | 58.42512 | -107.62010 | 36763 ft | 466 kts | 46° |
| 2026-04-22 00:05 | 58.46827 | -107.52809 | 36763 ft | 466 kts | 46° |
| 2026-04-22 00:06 | 58.51156 | -107.43543 | 36763 ft | 466 kts | 46° |
| 2026-04-22 00:06 | 58.55471 | -107.34269 | 36763 ft | 466 kts | 47° |
| 2026-04-22 00:07 | 58.59719 | -107.25101 | 36761 ft | 467 kts | 47° |
| 2026-04-22 00:07 | 58.64001 | -107.15825 | 36761 ft | 467 kts | 47° |
| 2026-04-22 00:08 | 58.68330 | -107.06406 | 36761 ft | 467 kts | 47° |
| 2026-04-22 00:08 | 58.72611 | -106.97052 | 36762 ft | 464 kts | 46° |
| 2026-04-22 00:09 | 58.76864 | -106.87725 | 36761 ft | 459 kts | 46° |
| 2026-04-22 00:09 | 58.81028 | -106.78560 | 36761 ft | 455 kts | 46° |
| 2026-04-22 00:10 | 58.85191 | -106.69360 | 36762 ft | 456 kts | 46° |
| 2026-04-22 00:10 | 58.89380 | -106.60062 | 36761 ft | 456 kts | 46° |
| 2026-04-22 00:11 | 58.93575 | -106.50714 | 36763 ft | 460 kts | 46° |
| 2026-04-22 00:11 | 58.97749 | -106.41376 | 36763 ft | 463 kts | 46° |
| 2026-04-22 00:12 | 59.02001 | -106.31828 | 36760 ft | 467 kts | 47° |
| 2026-04-22 00:12 | 59.06239 | -106.22267 | 36762 ft | 469 kts | 47° |
| 2026-04-22 00:13 | 59.10508 | -106.12593 | 36761 ft | 469 kts | 47° |
| 2026-04-22 00:13 | 59.14724 | -106.03005 | 36762 ft | 469 kts | 47° |
| 2026-04-22 00:14 | 59.18991 | -105.93258 | 36762 ft | 469 kts | 47° |
| 2026-04-22 00:14 | 59.23135 | -105.83752 | 36762 ft | 469 kts | 47° |
| 2026-04-22 00:15 | 59.27376 | -105.73984 | 36762 ft | 469 kts | 47° |
| 2026-04-22 00:15 | 59.31483 | -105.64487 | 36762 ft | 469 kts | 47° |
| 2026-04-22 00:16 | 59.35732 | -105.54618 | 36763 ft | 469 kts | 47° |
| 2026-04-22 00:16 | 59.39907 | -105.44881 | 36764 ft | 469 kts | 47° |
| 2026-04-22 00:17 | 59.44116 | -105.35022 | 36764 ft | 469 kts | 47° |
| 2026-04-22 00:17 | 59.46210 | -105.30100 | 36946 ft | 465 kts | 48° |
| 2026-04-22 00:17 | 59.48309 | -105.25159 | 36936 ft | 467 kts | 48° |
| 2026-04-22 00:18 | 59.52481 | -105.15306 | 36945 ft | 469 kts | 48° |
| 2026-04-22 00:18 | 59.56655 | -105.05399 | 36944 ft | 464 kts | 48° |
| 2026-04-22 00:19 | 59.60725 | -104.95707 | 36944 ft | 456 kts | 48° |
| 2026-04-22 00:19 | 59.64759 | -104.86065 | 36944 ft | 451 kts | 49° |
| 2026-04-22 00:20 | 59.68753 | -104.76464 | 36945 ft | 452 kts | 49° |
| 2026-04-22 00:20 | 59.72757 | -104.66806 | 36945 ft | 452 kts | 49° |
| 2026-04-22 00:21 | 59.76733 | -104.57173 | 36944 ft | 452 kts | 49° |
| 2026-04-22 00:21 | 59.80712 | -104.47497 | 36945 ft | 452 kts | 49° |
| 2026-04-22 00:22 | 59.84715 | -104.37718 | 36945 ft | 452 kts | 49° |
| 2026-04-22 00:22 | 59.88656 | -104.28051 | 36944 ft | 453 kts | 49° |
| 2026-04-22 00:23 | 59.92649 | -104.18218 | 36944 ft | 453 kts | 49° |
| 2026-04-22 00:23 | 59.96605 | -104.08432 | 36943 ft | 453 kts | 49° |
| 2026-04-22 00:24 | 60.00565 | -103.98715 | 36942 ft | 452 kts | 45° |
| 2026-04-22 00:24 | 60.05206 | -103.90296 | 36948 ft | 451 kts | 40° |
| 2026-04-22 00:25 | 60.09825 | -103.81795 | 36944 ft | 450 kts | 41° |
| 2026-04-22 00:25 | 60.14440 | -103.73220 | 36946 ft | 450 kts | 41° |
| 2026-04-22 00:26 | 60.19017 | -103.64667 | 36946 ft | 450 kts | 41° |
| 2026-04-22 00:26 | 60.23620 | -103.56028 | 36946 ft | 451 kts | 41° |
| 2026-04-22 00:27 | 60.28204 | -103.47387 | 36946 ft | 451 kts | 41° |
| 2026-04-22 00:27 | 60.32775 | -103.38738 | 36946 ft | 451 kts | 41° |
| 2026-04-22 00:28 | 60.37344 | -103.30058 | 36944 ft | 451 kts | 42° |
| 2026-04-22 00:28 | 60.41900 | -103.21367 | 36944 ft | 451 kts | 42° |
| 2026-04-22 00:29 | 60.46440 | -103.12676 | 36944 ft | 446 kts | 42° |
| 2026-04-22 00:29 | 60.50936 | -103.04041 | 36944 ft | 442 kts | 43° |
| 2026-04-22 00:30 | 60.55404 | -102.95414 | 36945 ft | 444 kts | 43° |
| 2026-04-22 00:30 | 60.59897 | -102.86691 | 36944 ft | 444 kts | 43° |
| 2026-04-22 00:31 | 60.64353 | -102.78015 | 36944 ft | 444 kts | 43° |
| 2026-04-22 00:31 | 60.68812 | -102.69300 | 36944 ft | 444 kts | 43° |
| 2026-04-22 00:32 | 60.73280 | -102.60533 | 36944 ft | 444 kts | 43° |
| 2026-04-22 00:32 | 60.77741 | -102.51746 | 36944 ft | 444 kts | 43° |
| 2026-04-22 00:33 | 60.82205 | -102.42912 | 36944 ft | 444 kts | 43° |
| 2026-04-22 00:33 | 60.86623 | -102.34136 | 36944 ft | 444 kts | 44° |
| 2026-04-22 00:34 | 60.91077 | -102.25253 | 36944 ft | 444 kts | 44° |
| 2026-04-22 00:34 | 60.95507 | -102.16381 | 36971 ft | 444 kts | 44° |
| 2026-04-22 00:35 | 60.99908 | -102.07532 | 37024 ft | 444 kts | 44° |
| 2026-04-22 00:35 | 61.04348 | -101.98566 | 37075 ft | 444 kts | 44° |
| 2026-04-22 00:36 | 61.08728 | -101.89687 | 37081 ft | 444 kts | 44° |
| 2026-04-22 00:36 | 61.13137 | -101.80710 | 37082 ft | 444 kts | 44° |
| 2026-04-22 00:37 | 61.17532 | -101.71725 | 37082 ft | 444 kts | 44° |
| 2026-04-22 00:37 | 61.21922 | -101.62712 | 37082 ft | 444 kts | 44° |
| 2026-04-22 00:38 | 61.26298 | -101.53693 | 37082 ft | 444 kts | 44° |
| 2026-04-22 00:38 | 61.30698 | -101.44585 | 37082 ft | 444 kts | 44° |
| 2026-04-22 00:39 | 61.35063 | -101.35513 | 37082 ft | 444 kts | 44° |
| 2026-04-22 00:39 | 61.39419 | -101.26420 | 37082 ft | 444 kts | 45° |
| 2026-04-22 00:40 | 61.43816 | -101.17203 | 37082 ft | 444 kts | 45° |
| 2026-04-22 00:40 | 61.48150 | -101.08081 | 37082 ft | 444 kts | 45° |
| 2026-04-22 00:41 | 61.52480 | -100.98925 | 37083 ft | 442 kts | 45° |
| 2026-04-22 00:41 | 61.56800 | -100.89756 | 37081 ft | 437 kts | 45° |
| 2026-04-22 00:42 | 61.61042 | -100.80714 | 37081 ft | 433 kts | 45° |
| 2026-04-22 00:42 | 61.65273 | -100.71658 | 37082 ft | 433 kts | 45° |
| 2026-04-22 00:43 | 61.69495 | -100.62583 | 37081 ft | 433 kts | 45° |
| 2026-04-22 00:43 | 61.73704 | -100.53500 | 37081 ft | 433 kts | 45° |
| 2026-04-22 00:44 | 61.77924 | -100.44351 | 37080 ft | 433 kts | 45° |
| 2026-04-22 00:44 | 61.82122 | -100.35215 | 37080 ft | 433 kts | 45° |
| 2026-04-22 00:45 | 61.86327 | -100.26025 | 37081 ft | 433 kts | 46° |
| 2026-04-22 00:45 | 61.90524 | -100.16814 | 37081 ft | 433 kts | 46° |
| 2026-04-22 00:46 | 61.94703 | -100.07604 | 37081 ft | 433 kts | 46° |
| 2026-04-22 00:46 | 61.98855 | -99.98414 | 37080 ft | 433 kts | 46° |
| 2026-04-22 00:47 | 62.03048 | -99.89095 | 37080 ft | 433 kts | 46° |
| 2026-04-22 00:47 | 62.07222 | -99.79778 | 37080 ft | 433 kts | 46° |
| 2026-04-22 00:48 | 62.11380 | -99.70457 | 37083 ft | 433 kts | 46° |
| 2026-04-22 00:48 | 62.15529 | -99.61118 | 37082 ft | 433 kts | 46° |
| 2026-04-22 00:49 | 62.19660 | -99.51777 | 37082 ft | 433 kts | 46° |
| 2026-04-22 00:49 | 62.23807 | -99.42361 | 37082 ft | 433 kts | 46° |
| 2026-04-22 00:50 | 62.27915 | -99.32995 | 37083 ft | 433 kts | 47° |
| 2026-04-22 00:50 | 62.32054 | -99.23515 | 37120 ft | 433 kts | 47° |
| 2026-04-22 00:51 | 62.36172 | -99.14045 | 37199 ft | 433 kts | 47° |
| 2026-04-22 00:51 | 62.40253 | -99.04642 | 37283 ft | 424 kts | 47° |
| 2026-04-22 00:52 | 62.44223 | -98.95482 | 37290 ft | 417 kts | 50° |
| 2026-04-22 00:52 | 62.48217 | -98.86199 | 37285 ft | 421 kts | 53° |
| 2026-04-22 00:53 | 62.52175 | -98.76866 | 37294 ft | 425 kts | 53° |
| 2026-04-22 00:53 | 62.56175 | -98.67457 | 37290 ft | 426 kts | 53° |
| 2026-04-22 00:54 | 62.60184 | -98.57996 | 37290 ft | 425 kts | 53° |
| 2026-04-22 00:54 | 62.64172 | -98.48545 | 37290 ft | 425 kts | 53° |
| 2026-04-22 00:55 | 62.68158 | -98.39059 | 37290 ft | 425 kts | 53° |
| 2026-04-22 00:55 | 62.74121 | -98.24795 | 37294 ft | 424 kts | 54° |
| 2026-04-22 00:56 | 62.78081 | -98.15272 | 37295 ft | 424 kts | 54° |
| 2026-04-22 00:56 | 62.82050 | -98.05684 | 37295 ft | 424 kts | 54° |
| 2026-04-22 00:57 | 62.85980 | -97.96148 | 37294 ft | 424 kts | 54° |
| 2026-04-22 00:57 | 62.89909 | -97.86573 | 37294 ft | 424 kts | 54° |
| 2026-04-22 00:58 | 62.93839 | -97.76957 | 37293 ft | 424 kts | 54° |
| 2026-04-22 00:58 | 62.97777 | -97.67278 | 37293 ft | 423 kts | 54° |
| 2026-04-22 00:59 | 63.01678 | -97.57645 | 37292 ft | 423 kts | 54° |
| 2026-04-22 00:59 | 63.05592 | -97.47942 | 37292 ft | 423 kts | 54° |
| 2026-04-22 01:00 | 63.09517 | -97.38168 | 37291 ft | 423 kts | 54° |
| 2026-04-22 01:00 | 63.13388 | -97.28483 | 37293 ft | 422 kts | 54° |
| 2026-04-22 01:01 | 63.17278 | -97.18710 | 37292 ft | 422 kts | 54° |
| 2026-04-22 01:01 | 63.21138 | -97.08994 | 37290 ft | 414 kts | 55° |
| 2026-04-22 01:02 | 63.24881 | -96.99513 | 37291 ft | 404 kts | 56° |
| 2026-04-22 01:02 | 63.28527 | -96.90237 | 37251 ft | 402 kts | 57° |
| 2026-04-22 01:03 | 63.32230 | -96.80741 | 37255 ft | 406 kts | 57° |
| 2026-04-22 01:03 | 63.35901 | -96.71320 | 37252 ft | 405 kts | 57° |
| 2026-04-22 01:04 | 63.39580 | -96.61833 | 37252 ft | 404 kts | 57° |
| 2026-04-22 01:04 | 63.43245 | -96.52344 | 37252 ft | 404 kts | 57° |
| 2026-04-22 01:05 | 63.46901 | -96.42841 | 37251 ft | 404 kts | 57° |
| 2026-04-22 01:05 | 63.50573 | -96.33252 | 37255 ft | 403 kts | 57° |
| 2026-04-22 01:06 | 63.54210 | -96.23712 | 37257 ft | 403 kts | 57° |
| 2026-04-22 01:06 | 63.57847 | -96.14134 | 37257 ft | 403 kts | 57° |
| 2026-04-22 01:07 | 63.61460 | -96.04579 | 37257 ft | 403 kts | 57° |
| 2026-04-22 01:07 | 63.65072 | -95.94982 | 37256 ft | 402 kts | 57° |
| 2026-04-22 01:08 | 63.68673 | -95.85377 | 37255 ft | 402 kts | 57° |
| 2026-04-22 01:08 | 63.72271 | -95.75734 | 37255 ft | 402 kts | 57° |
| 2026-04-22 01:09 | 63.75880 | -95.66021 | 37254 ft | 402 kts | 57° |
| 2026-04-22 01:09 | 63.79443 | -95.56392 | 37254 ft | 402 kts | 57° |
| 2026-04-22 01:10 | 63.83042 | -95.46622 | 37253 ft | 402 kts | 57° |
| 2026-04-22 01:10 | 63.86599 | -95.36923 | 37252 ft | 402 kts | 57° |
| 2026-04-22 01:11 | 63.90163 | -95.27160 | 37259 ft | 400 kts | 58° |
| 2026-04-22 01:11 | 63.93710 | -95.17405 | 37260 ft | 400 kts | 58° |
| 2026-04-22 01:12 | 63.97240 | -95.07655 | 37259 ft | 400 kts | 58° |
| 2026-04-22 01:12 | 64.00776 | -94.97902 | 37259 ft | 399 kts | 58° |
| 2026-04-22 01:13 | 64.04327 | -94.88206 | 37257 ft | 396 kts | 58° |
| 2026-04-22 01:13 | 64.07846 | -94.78548 | 37257 ft | 394 kts | 58° |
| 2026-04-22 01:14 | 64.11338 | -94.68916 | 37251 ft | 394 kts | 58° |
| 2026-04-22 01:14 | 64.14812 | -94.59298 | 37250 ft | 394 kts | 58° |
| 2026-04-22 01:15 | 64.18287 | -94.49641 | 37250 ft | 394 kts | 58° |
| 2026-04-22 01:15 | 64.21777 | -94.39901 | 37249 ft | 393 kts | 58° |
| 2026-04-22 01:16 | 64.25242 | -94.30182 | 37259 ft | 392 kts | 59° |
| 2026-04-22 01:16 | 64.28678 | -94.20509 | 37257 ft | 392 kts | 59° |
| 2026-04-22 01:17 | 64.32122 | -94.10770 | 37256 ft | 392 kts | 59° |
| 2026-04-22 01:17 | 64.35573 | -94.00977 | 37265 ft | 393 kts | 59° |
| 2026-04-22 01:18 | 64.39018 | -93.91137 | 37302 ft | 397 kts | 59° |
| 2026-04-22 01:18 | 64.42486 | -93.81201 | 37296 ft | 397 kts | 59° |
| 2026-04-22 01:19 | 64.45947 | -93.71238 | 37268 ft | 396 kts | 59° |
| 2026-04-22 01:19 | 64.49386 | -93.61295 | 37237 ft | 396 kts | 59° |
| 2026-04-22 01:20 | 64.52829 | -93.51292 | 37225 ft | 395 kts | 59° |
| 2026-04-22 01:20 | 64.56240 | -93.41341 | 37224 ft | 395 kts | 59° |
| 2026-04-22 01:21 | 64.59657 | -93.31323 | 37232 ft | 394 kts | 60° |
| 2026-04-22 01:21 | 64.63075 | -93.21267 | 37231 ft | 394 kts | 60° |
| 2026-04-22 01:22 | 64.66473 | -93.11216 | 37230 ft | 394 kts | 60° |
| 2026-04-22 01:22 | 64.69837 | -93.01235 | 37229 ft | 392 kts | 60° |
| 2026-04-22 01:23 | 64.73194 | -92.91223 | 37229 ft | 390 kts | 61° |
| 2026-04-22 01:23 | 64.76527 | -92.81226 | 37228 ft | 389 kts | 61° |
| 2026-04-22 01:24 | 64.79858 | -92.71190 | 37227 ft | 389 kts | 61° |
| 2026-04-22 01:24 | 64.83161 | -92.61199 | 37227 ft | 389 kts | 61° |
| 2026-04-22 01:25 | 64.86484 | -92.51102 | 37226 ft | 389 kts | 61° |
| 2026-04-22 01:25 | 64.89777 | -92.41052 | 37225 ft | 388 kts | 61° |
| 2026-04-22 01:26 | 64.93065 | -92.30971 | 37235 ft | 387 kts | 62° |
| 2026-04-22 01:26 | 64.96345 | -92.20874 | 37234 ft | 387 kts | 62° |
| 2026-04-22 01:27 | 64.99624 | -92.10731 | 37232 ft | 387 kts | 62° |
| 2026-04-22 01:27 | 65.02864 | -92.00660 | 37232 ft | 387 kts | 62° |
| 2026-04-22 01:28 | 65.06128 | -91.90470 | 37231 ft | 386 kts | 62° |
| 2026-04-22 01:28 | 65.09358 | -91.80344 | 37230 ft | 386 kts | 62° |
| 2026-04-22 01:29 | 65.12599 | -91.70132 | 37223 ft | 386 kts | 62° |
| 2026-04-22 01:29 | 65.15823 | -91.59928 | 37222 ft | 386 kts | 62° |
| 2026-04-22 01:30 | 65.19031 | -91.49728 | 37222 ft | 386 kts | 62° |
| 2026-04-22 01:30 | 65.22256 | -91.39429 | 37221 ft | 385 kts | 62° |
| 2026-04-22 01:31 | 65.25452 | -91.29170 | 37232 ft | 384 kts | 62° |
| 2026-04-22 01:31 | 65.28633 | -91.18919 | 37230 ft | 384 kts | 62° |
| 2026-04-22 01:32 | 65.31809 | -91.08639 | 37228 ft | 384 kts | 63° |
| 2026-04-22 01:32 | 65.34966 | -90.98370 | 37225 ft | 384 kts | 64° |
| 2026-04-22 01:33 | 65.38148 | -90.87967 | 37232 ft | 388 kts | 63° |
| 2026-04-22 01:33 | 65.41333 | -90.77505 | 37225 ft | 389 kts | 63° |
| 2026-04-22 01:34 | 65.44520 | -90.66989 | 37225 ft | 389 kts | 63° |
| 2026-04-22 01:34 | 65.47687 | -90.56491 | 37224 ft | 388 kts | 63° |
| 2026-04-22 01:35 | 65.50851 | -90.45950 | 37223 ft | 388 kts | 63° |
| 2026-04-22 01:35 | 65.54020 | -90.35345 | 37222 ft | 388 kts | 63° |
| 2026-04-22 01:36 | 65.57164 | -90.24770 | 37231 ft | 387 kts | 64° |
| 2026-04-22 01:36 | 65.60294 | -90.14198 | 37230 ft | 386 kts | 64° |
| 2026-04-22 01:37 | 65.63393 | -90.03678 | 37230 ft | 386 kts | 64° |
| 2026-04-22 01:37 | 65.66524 | -89.93001 | 37229 ft | 386 kts | 64° |
| 2026-04-22 01:38 | 65.69620 | -89.82388 | 37228 ft | 386 kts | 64° |
| 2026-04-22 01:38 | 65.72728 | -89.71685 | 37227 ft | 386 kts | 64° |
| 2026-04-22 01:39 | 65.75794 | -89.61076 | 37226 ft | 386 kts | 64° |
| 2026-04-22 01:39 | 65.78873 | -89.50369 | 37226 ft | 385 kts | 64° |
| 2026-04-22 01:40 | 65.81936 | -89.39670 | 37225 ft | 385 kts | 64° |
| 2026-04-22 01:40 | 65.85006 | -89.28886 | 37235 ft | 384 kts | 64° |
| 2026-04-22 01:41 | 65.88039 | -89.18192 | 37233 ft | 384 kts | 64° |
| 2026-04-22 01:41 | 65.91079 | -89.07416 | 37232 ft | 384 kts | 64° |
| 2026-04-22 01:42 | 65.94097 | -88.96668 | 37231 ft | 384 kts | 64° |
| 2026-04-22 01:42 | 65.97117 | -88.85858 | 37230 ft | 385 kts | 65° |
| 2026-04-22 01:43 | 66.00150 | -88.74947 | 37230 ft | 386 kts | 65° |
| 2026-04-22 01:43 | 66.03177 | -88.64005 | 37229 ft | 386 kts | 65° |
| 2026-04-22 01:44 | 66.06195 | -88.53043 | 37228 ft | 386 kts | 65° |
| 2026-04-22 01:44 | 66.09178 | -88.42153 | 37227 ft | 385 kts | 65° |
| 2026-04-22 01:45 | 66.12182 | -88.31131 | 37228 ft | 384 kts | 65° |
| 2026-04-22 01:45 | 66.15162 | -88.20145 | 37231 ft | 384 kts | 65° |
| 2026-04-22 01:46 | 66.18121 | -88.09179 | 37235 ft | 384 kts | 65° |
| 2026-04-22 01:46 | 66.21076 | -87.98176 | 37235 ft | 384 kts | 65° |
| 2026-04-22 01:47 | 66.24020 | -87.87161 | 37234 ft | 383 kts | 65° |
| 2026-04-22 01:47 | 66.26962 | -87.76093 | 37234 ft | 383 kts | 65° |
| 2026-04-22 01:48 | 66.29934 | -87.64880 | 37240 ft | 387 kts | 66° |
| 2026-04-22 01:48 | 66.32896 | -87.53605 | 37233 ft | 390 kts | 66° |
| 2026-04-22 01:49 | 66.35866 | -87.42265 | 37230 ft | 389 kts | 66° |
| 2026-04-22 01:49 | 66.38822 | -87.30911 | 37240 ft | 387 kts | 66° |
| 2026-04-22 01:50 | 66.41741 | -87.19652 | 37239 ft | 387 kts | 66° |
| 2026-04-22 01:50 | 66.44669 | -87.08298 | 37238 ft | 387 kts | 66° |
| 2026-04-22 01:51 | 66.47587 | -86.96912 | 37237 ft | 388 kts | 66° |
| 2026-04-22 01:51 | 66.50517 | -86.85427 | 37236 ft | 389 kts | 66° |
| 2026-04-22 01:52 | 66.53436 | -86.73937 | 37235 ft | 388 kts | 66° |
| 2026-04-22 01:52 | 66.56325 | -86.62496 | 37235 ft | 388 kts | 66° |
| 2026-04-22 01:53 | 66.59229 | -86.50937 | 37234 ft | 388 kts | 66° |
| 2026-04-22 01:53 | 66.62099 | -86.39455 | 37233 ft | 388 kts | 66° |
| 2026-04-22 01:54 | 66.64961 | -86.27935 | 37242 ft | 387 kts | 67° |
| 2026-04-22 01:54 | 66.67824 | -86.16363 | 37241 ft | 386 kts | 67° |
| 2026-04-22 01:55 | 66.70657 | -86.04842 | 37240 ft | 386 kts | 67° |
| 2026-04-22 01:55 | 66.73488 | -85.93276 | 37239 ft | 386 kts | 67° |
| 2026-04-22 01:56 | 66.76304 | -85.81704 | 37238 ft | 386 kts | 67° |
| 2026-04-22 01:56 | 66.79110 | -85.70113 | 37237 ft | 386 kts | 67° |
| 2026-04-22 01:57 | 66.81915 | -85.58468 | 37236 ft | 386 kts | 67° |
| 2026-04-22 01:57 | 66.84699 | -85.46844 | 37235 ft | 385 kts | 67° |
| 2026-04-22 01:58 | 66.87487 | -85.35139 | 37235 ft | 385 kts | 67° |
| 2026-04-22 01:58 | 66.90269 | -85.23400 | 37241 ft | 384 kts | 68° |
| 2026-04-22 01:59 | 66.93006 | -85.11787 | 37242 ft | 388 kts | 68° |
| 2026-04-22 01:59 | 66.95810 | -84.99825 | 37241 ft | 394 kts | 68° |
| 2026-04-22 02:00 | 66.98650 | -84.87640 | 37243 ft | 398 kts | 68° |
| 2026-04-22 02:00 | 67.01479 | -84.75444 | 37240 ft | 397 kts | 68° |
| 2026-04-22 02:01 | 67.04301 | -84.63200 | 37240 ft | 397 kts | 68° |
| 2026-04-22 02:01 | 67.07099 | -84.50993 | 37239 ft | 397 kts | 68° |
| 2026-04-22 02:02 | 67.09890 | -84.38748 | 37238 ft | 397 kts | 68° |
| 2026-04-22 02:02 | 67.12669 | -84.26483 | 37237 ft | 395 kts | 68° |
| 2026-04-22 02:03 | 67.15447 | -84.14195 | 37281 ft | 397 kts | 69° |
| 2026-04-22 02:03 | 67.18219 | -84.01782 | 37284 ft | 402 kts | 69° |
| 2026-04-22 02:04 | 67.22401 | -83.82988 | 37279 ft | 400 kts | 69° |
| 2026-04-22 02:05 | 67.25161 | -83.70489 | 37279 ft | 400 kts | 69° |
| 2026-04-22 02:05 | 67.27907 | -83.57982 | 37278 ft | 400 kts | 69° |
| 2026-04-22 02:06 | 67.30648 | -83.45423 | 37277 ft | 400 kts | 69° |
| 2026-04-22 02:06 | 67.33387 | -83.32799 | 37281 ft | 399 kts | 70° |
| 2026-04-22 02:07 | 67.36100 | -83.20221 | 37283 ft | 399 kts | 70° |
| 2026-04-22 02:07 | 67.38796 | -83.07649 | 37283 ft | 398 kts | 70° |
| 2026-04-22 02:08 | 67.41502 | -82.94955 | 37282 ft | 401 kts | 70° |
| 2026-04-22 02:08 | 67.44222 | -82.82118 | 37282 ft | 406 kts | 70° |
| 2026-04-22 02:09 | 67.46939 | -82.69222 | 37281 ft | 407 kts | 70° |
| 2026-04-22 02:09 | 67.49661 | -82.56224 | 37280 ft | 407 kts | 70° |
| 2026-04-22 02:10 | 67.52364 | -82.43227 | 37280 ft | 406 kts | 70° |
| 2026-04-22 02:10 | 67.55057 | -82.30202 | 37286 ft | 405 kts | 70° |
| 2026-04-22 02:11 | 67.57742 | -82.17141 | 37285 ft | 405 kts | 70° |
| 2026-04-22 02:11 | 67.60397 | -82.04145 | 37285 ft | 405 kts | 70° |
| 2026-04-22 02:12 | 67.63062 | -81.91014 | 37284 ft | 405 kts | 70° |
| 2026-04-22 02:12 | 67.65694 | -81.77966 | 37283 ft | 405 kts | 70° |
| 2026-04-22 02:13 | 67.68320 | -81.64870 | 37283 ft | 404 kts | 70° |
| 2026-04-22 02:13 | 67.70943 | -81.51706 | 37282 ft | 404 kts | 70° |
| 2026-04-22 02:14 | 67.73548 | -81.38545 | 37282 ft | 404 kts | 70° |
| 2026-04-22 02:14 | 67.76122 | -81.25459 | 37288 ft | 403 kts | 71° |
| 2026-04-22 02:15 | 67.78710 | -81.12224 | 37288 ft | 403 kts | 71° |
| 2026-04-22 02:15 | 67.81300 | -80.98882 | 37284 ft | 409 kts | 71° |
| 2026-04-22 02:16 | 67.83922 | -80.85290 | 37285 ft | 415 kts | 71° |
| 2026-04-22 02:16 | 67.86567 | -80.71497 | 37290 ft | 421 kts | 71° |
| 2026-04-22 02:17 | 67.89198 | -80.57698 | 37285 ft | 420 kts | 71° |
| 2026-04-22 02:17 | 67.91833 | -80.43774 | 37286 ft | 420 kts | 71° |
| 2026-04-22 02:18 | 67.94449 | -80.29849 | 37290 ft | 419 kts | 71° |
| 2026-04-22 02:18 | 67.97068 | -80.15836 | 37393 ft | 422 kts | 72° |
| 2026-04-22 02:19 | 67.99690 | -80.01744 | 37381 ft | 426 kts | 70° |
| 2026-04-22 02:19 | 68.02960 | -79.88247 | 37383 ft | 430 kts | 65° |
| 2026-04-22 02:20 | 68.06234 | -79.74986 | 37381 ft | 431 kts | 64° |
| 2026-04-22 02:20 | 68.09545 | -79.61562 | 37380 ft | 430 kts | 64° |
| 2026-04-22 02:21 | 68.12846 | -79.48108 | 37368 ft | 430 kts | 64° |
| 2026-04-22 02:21 | 68.16112 | -79.34716 | 37368 ft | 430 kts | 65° |
| 2026-04-22 02:22 | 68.19392 | -79.21184 | 37371 ft | 429 kts | 65° |
| 2026-04-22 02:22 | 68.22660 | -79.07606 | 37368 ft | 434 kts | 65° |
| 2026-04-22 02:23 | 68.25949 | -78.93856 | 37369 ft | 440 kts | 65° |
| 2026-04-22 02:23 | 68.29285 | -78.79834 | 37376 ft | 446 kts | 65° |
| 2026-04-22 02:24 | 68.32626 | -78.65701 | 37370 ft | 446 kts | 65° |
| 2026-04-22 02:24 | 68.35950 | -78.51545 | 37371 ft | 445 kts | 65° |
| 2026-04-22 02:25 | 68.39265 | -78.37334 | 37371 ft | 445 kts | 65° |
| 2026-04-22 02:25 | 68.42577 | -78.23040 | 37374 ft | 444 kts | 66° |
| 2026-04-22 02:26 | 68.45836 | -78.08878 | 37375 ft | 444 kts | 66° |
| 2026-04-22 02:26 | 68.49127 | -77.94484 | 37374 ft | 444 kts | 66° |
| 2026-04-22 02:27 | 68.52374 | -77.80189 | 37374 ft | 443 kts | 66° |
| 2026-04-22 02:27 | 68.55623 | -77.65791 | 37374 ft | 443 kts | 66° |
| 2026-04-22 02:28 | 68.58841 | -77.51433 | 37375 ft | 443 kts | 66° |
| 2026-04-22 02:28 | 68.62046 | -77.37035 | 37374 ft | 443 kts | 66° |
| 2026-04-22 02:29 | 68.65246 | -77.22568 | 37379 ft | 442 kts | 67° |
| 2026-04-22 02:29 | 68.68424 | -77.08102 | 37397 ft | 442 kts | 67° |
| 2026-04-22 02:30 | 68.71584 | -76.93606 | 37405 ft | 443 kts | 66° |
| 2026-04-22 02:30 | 68.74737 | -76.79047 | 37405 ft | 444 kts | 66° |
| 2026-04-22 02:31 | 68.77885 | -76.64439 | 37404 ft | 444 kts | 66° |
| 2026-04-22 02:31 | 68.81008 | -76.49834 | 37405 ft | 443 kts | 66° |
| 2026-04-22 02:32 | 68.84145 | -76.35058 | 37404 ft | 443 kts | 66° |
| 2026-04-22 02:32 | 68.87252 | -76.20325 | 37407 ft | 442 kts | 67° |
| 2026-04-22 02:33 | 68.90337 | -76.05590 | 37407 ft | 442 kts | 67° |
| 2026-04-22 02:33 | 68.93405 | -75.90834 | 37412 ft | 446 kts | 67° |
| 2026-04-22 02:34 | 68.96520 | -75.75755 | 37406 ft | 446 kts | 67° |
| 2026-04-22 02:34 | 68.99577 | -75.60844 | 37407 ft | 446 kts | 67° |
| 2026-04-22 02:35 | 69.02650 | -75.45757 | 37408 ft | 445 kts | 67° |
| 2026-04-22 02:35 | 69.05703 | -75.30650 | 37410 ft | 444 kts | 68° |
| 2026-04-22 02:36 | 69.08719 | -75.15627 | 37410 ft | 444 kts | 68° |
| 2026-04-22 02:36 | 69.11745 | -75.00413 | 37393 ft | 449 kts | 67° |
| 2026-04-22 02:37 | 69.14784 | -74.85025 | 37397 ft | 455 kts | 66° |
| 2026-04-22 02:37 | 69.17883 | -74.69290 | 37399 ft | 459 kts | 66° |
| 2026-04-22 02:38 | 69.20943 | -74.53606 | 37397 ft | 458 kts | 66° |
| 2026-04-22 02:38 | 69.23992 | -74.37844 | 37398 ft | 458 kts | 66° |
| 2026-04-22 02:39 | 69.27031 | -74.22020 | 37399 ft | 457 kts | 67° |
| 2026-04-22 02:39 | 69.30059 | -74.06130 | 37400 ft | 457 kts | 67° |
| 2026-04-22 02:40 | 69.33051 | -73.90308 | 37400 ft | 457 kts | 67° |
| 2026-04-22 02:40 | 69.36028 | -73.74448 | 37365 ft | 457 kts | 67° |
| 2026-04-22 02:41 | 69.39008 | -73.58450 | 37335 ft | 457 kts | 67° |
| 2026-04-22 02:41 | 69.41949 | -73.42540 | 37336 ft | 457 kts | 67° |
| 2026-04-22 02:42 | 69.44891 | -73.26497 | 37338 ft | 456 kts | 68° |
| 2026-04-22 02:42 | 69.47808 | -73.10448 | 37337 ft | 459 kts | 68° |
| 2026-04-22 02:43 | 69.50753 | -72.94102 | 37339 ft | 466 kts | 67° |
| 2026-04-22 02:43 | 69.53706 | -72.77664 | 37338 ft | 465 kts | 67° |
| 2026-04-22 02:44 | 69.56625 | -72.61252 | 37339 ft | 465 kts | 67° |
| 2026-04-22 02:44 | 69.59551 | -72.44649 | 37339 ft | 465 kts | 67° |
| 2026-04-22 02:45 | 69.62453 | -72.28056 | 37339 ft | 464 kts | 68° |
| 2026-04-22 02:45 | 69.65327 | -72.11485 | 37340 ft | 464 kts | 68° |
| 2026-04-22 02:46 | 69.68188 | -71.94849 | 37340 ft | 464 kts | 68° |
| 2026-04-22 02:46 | 69.71036 | -71.78154 | 37340 ft | 464 kts | 68° |
| 2026-04-22 02:47 | 69.73858 | -71.61481 | 37340 ft | 464 kts | 68° |
| 2026-04-22 02:47 | 69.76681 | -71.44662 | 37341 ft | 464 kts | 68° |
| 2026-04-22 02:48 | 69.79472 | -71.27895 | 37341 ft | 463 kts | 69° |
| 2026-04-22 02:48 | 69.82257 | -71.11005 | 37342 ft | 465 kts | 69° |
| 2026-04-22 02:49 | 69.85036 | -70.93996 | 37339 ft | 469 kts | 68° |
| 2026-04-22 02:49 | 69.87832 | -70.76706 | 37344 ft | 476 kts | 67° |
| 2026-04-22 02:50 | 69.90631 | -70.59374 | 37340 ft | 476 kts | 67° |
| 2026-04-22 02:50 | 69.93431 | -70.41826 | 37344 ft | 476 kts | 67° |
| 2026-04-22 02:51 | 69.96207 | -70.24265 | 37341 ft | 476 kts | 68° |
| 2026-04-22 02:51 | 69.98953 | -70.06734 | 37342 ft | 476 kts | 68° |
| 2026-04-22 02:52 | 70.02075 | -69.89727 | 37346 ft | 478 kts | 55° |
| 2026-04-22 02:52 | 70.06030 | -69.74111 | 37342 ft | 478 kts | 57° |
| 2026-04-22 02:53 | 70.09804 | -69.58058 | 37343 ft | 478 kts | 57° |
| 2026-04-22 02:53 | 70.13561 | -69.41811 | 37337 ft | 478 kts | 57° |
| 2026-04-22 02:54 | 70.17268 | -69.25639 | 37334 ft | 478 kts | 58° |
| 2026-04-22 02:54 | 70.20975 | -69.09334 | 37335 ft | 478 kts | 58° |
| 2026-04-22 02:55 | 70.24685 | -68.92837 | 37337 ft | 483 kts | 57° |
| 2026-04-22 02:55 | 70.28410 | -68.76220 | 37337 ft | 485 kts | 56° |
| 2026-04-22 02:56 | 70.32098 | -68.59646 | 37338 ft | 484 kts | 56° |
| 2026-04-22 02:56 | 70.35795 | -68.42883 | 37339 ft | 484 kts | 56° |
| 2026-04-22 02:57 | 70.39448 | -68.26190 | 37336 ft | 484 kts | 57° |
| 2026-04-22 02:57 | 70.43114 | -68.09293 | 37338 ft | 484 kts | 57° |
| 2026-04-22 02:58 | 70.46759 | -67.92365 | 37338 ft | 484 kts | 57° |
| 2026-04-22 02:58 | 70.50365 | -67.75486 | 37339 ft | 484 kts | 57° |
| 2026-04-22 02:59 | 70.53967 | -67.58487 | 37339 ft | 484 kts | 57° |
| 2026-04-22 02:59 | 70.57555 | -67.41427 | 37340 ft | 484 kts | 57° |
| 2026-04-22 03:00 | 70.61150 | -67.24196 | 37337 ft | 484 kts | 58° |
| 2026-04-22 03:00 | 70.64687 | -67.07046 | 37338 ft | 484 kts | 58° |
| 2026-04-22 03:01 | 70.68219 | -66.89821 | 37338 ft | 482 kts | 56° |
| 2026-04-22 03:01 | 70.71750 | -66.72530 | 37340 ft | 482 kts | 57° |
| 2026-04-22 03:02 | 70.75249 | -66.55214 | 37340 ft | 482 kts | 57° |
| 2026-04-22 03:02 | 70.78719 | -66.37887 | 37340 ft | 482 kts | 57° |
| 2026-04-22 03:03 | 70.82189 | -66.20422 | 37338 ft | 483 kts | 58° |
| 2026-04-22 03:03 | 70.85654 | -66.02827 | 37317 ft | 483 kts | 57° |
| 2026-04-22 03:04 | 70.89088 | -65.85255 | 37279 ft | 482 kts | 57° |
| 2026-04-22 03:04 | 70.92518 | -65.67556 | 37276 ft | 482 kts | 57° |
| 2026-04-22 03:05 | 70.95911 | -65.49895 | 37276 ft | 482 kts | 57° |
| 2026-04-22 03:05 | 70.99319 | -65.32010 | 37277 ft | 484 kts | 58° |
| 2026-04-22 03:06 | 71.02698 | -65.14123 | 37275 ft | 484 kts | 58° |
| 2026-04-22 03:06 | 71.06106 | -64.96139 | 37271 ft | 482 kts | 54° |
| 2026-04-22 03:06 | 71.08090 | -64.88016 | 37279 ft | 476 kts | 43° |
| 2026-04-22 03:07 | 71.10439 | -64.80946 | 37284 ft | 465 kts | 35° |
| 2026-04-22 03:07 | 71.15209 | -64.67481 | 37273 ft | 465 kts | 37° |
| 2026-04-22 03:08 | 71.19897 | -64.53638 | 37267 ft | 466 kts | 38° |
| 2026-04-22 03:08 | 71.24586 | -64.39602 | 37266 ft | 466 kts | 38° |
| 2026-04-22 03:09 | 71.29240 | -64.25562 | 37263 ft | 467 kts | 39° |
| 2026-04-22 03:09 | 71.33910 | -64.11362 | 37263 ft | 467 kts | 39° |
| 2026-04-22 03:10 | 71.38557 | -63.97135 | 37264 ft | 467 kts | 39° |
| 2026-04-22 03:10 | 71.43195 | -63.82838 | 37264 ft | 467 kts | 39° |
| 2026-04-22 03:11 | 71.47845 | -63.68398 | 37264 ft | 467 kts | 39° |
| 2026-04-22 03:11 | 71.52438 | -63.54028 | 37265 ft | 467 kts | 39° |
| 2026-04-22 03:12 | 71.57054 | -63.39487 | 37265 ft | 467 kts | 39° |
| 2026-04-22 03:12 | 71.63962 | -63.17527 | 37262 ft | 468 kts | 40° |
| 2026-04-22 03:13 | 71.68549 | -63.02800 | 37262 ft | 466 kts | 39° |
| 2026-04-22 03:13 | 71.73062 | -62.88203 | 37262 ft | 463 kts | 39° |
| 2026-04-22 03:14 | 71.77612 | -62.73412 | 37263 ft | 463 kts | 39° |
| 2026-04-22 03:14 | 71.82117 | -62.58645 | 37262 ft | 463 kts | 39° |
| 2026-04-22 03:15 | 71.86625 | -62.43754 | 37263 ft | 463 kts | 39° |
| 2026-04-22 03:15 | 71.91122 | -62.28793 | 37259 ft | 464 kts | 40° |
| 2026-04-22 03:16 | 71.95630 | -62.13681 | 37260 ft | 464 kts | 40° |
| 2026-04-22 03:16 | 72.00114 | -61.98534 | 37260 ft | 464 kts | 40° |
| 2026-04-22 03:17 | 72.04570 | -61.83376 | 37260 ft | 464 kts | 40° |
| 2026-04-22 03:17 | 72.09021 | -61.68118 | 37261 ft | 464 kts | 40° |
| 2026-04-22 03:18 | 72.13463 | -61.52779 | 37267 ft | 464 kts | 40° |
| 2026-04-22 03:18 | 72.17879 | -61.37407 | 37395 ft | 463 kts | 40° |
| 2026-04-22 03:19 | 72.22292 | -61.21940 | 37385 ft | 465 kts | 41° |
| 2026-04-22 03:19 | 72.26653 | -61.06514 | 37385 ft | 463 kts | 40° |
| 2026-04-22 03:20 | 72.31002 | -60.91030 | 37385 ft | 461 kts | 40° |
| 2026-04-22 03:20 | 72.35367 | -60.75400 | 37386 ft | 462 kts | 40° |
| 2026-04-22 03:21 | 72.39688 | -60.59789 | 37386 ft | 462 kts | 40° |
| 2026-04-22 03:21 | 72.43981 | -60.44157 | 37386 ft | 462 kts | 40° |
| 2026-04-22 03:22 | 72.48286 | -60.28365 | 37382 ft | 463 kts | 41° |
| 2026-04-22 03:22 | 72.52582 | -60.12483 | 37383 ft | 463 kts | 41° |
| 2026-04-22 03:23 | 72.56889 | -59.96432 | 37383 ft | 463 kts | 41° |
| 2026-04-22 03:23 | 72.61161 | -59.80390 | 37384 ft | 463 kts | 41° |
| 2026-04-22 03:24 | 72.65419 | -59.64278 | 37384 ft | 463 kts | 41° |
| 2026-04-22 03:24 | 72.69643 | -59.48166 | 37384 ft | 463 kts | 41° |
| 2026-04-22 03:25 | 72.73901 | -59.31803 | 37382 ft | 464 kts | 42° |
| 2026-04-22 03:25 | 72.78117 | -59.15470 | 37381 ft | 464 kts | 42° |
| 2026-04-22 03:26 | 72.82327 | -58.99027 | 37382 ft | 463 kts | 42° |
| 2026-04-22 03:26 | 72.86517 | -58.82519 | 37381 ft | 459 kts | 41° |
| 2026-04-22 03:27 | 72.90642 | -58.66163 | 37382 ft | 458 kts | 41° |
| 2026-04-22 03:27 | 72.94772 | -58.49655 | 37381 ft | 458 kts | 41° |
| 2026-04-22 03:28 | 72.98885 | -58.33081 | 37380 ft | 459 kts | 43° |
| 2026-04-22 03:28 | 73.03032 | -58.16235 | 37322 ft | 460 kts | 43° |
| 2026-04-22 03:29 | 73.07126 | -57.99463 | 37256 ft | 459 kts | 43° |
| 2026-04-22 03:29 | 73.11227 | -57.82529 | 37266 ft | 459 kts | 43° |
| 2026-04-22 03:30 | 73.15331 | -57.65448 | 37267 ft | 459 kts | 43° |
| 2026-04-22 03:30 | 73.19385 | -57.48434 | 37268 ft | 459 kts | 43° |
| 2026-04-22 03:31 | 73.23473 | -57.31139 | 37265 ft | 460 kts | 44° |
| 2026-04-22 03:31 | 73.27505 | -57.13933 | 37264 ft | 460 kts | 44° |
| 2026-04-22 03:32 | 73.31544 | -56.96527 | 37265 ft | 456 kts | 43° |
| 2026-04-22 03:32 | 73.35508 | -56.79334 | 37264 ft | 452 kts | 43° |
| 2026-04-22 03:33 | 73.39449 | -56.62127 | 37266 ft | 453 kts | 43° |
| 2026-04-22 03:33 | 73.43393 | -56.44743 | 37266 ft | 453 kts | 43° |
| 2026-04-22 03:34 | 73.47290 | -56.27419 | 37262 ft | 454 kts | 44° |
| 2026-04-22 03:34 | 73.51204 | -56.09871 | 37262 ft | 454 kts | 44° |
| 2026-04-22 03:35 | 73.55099 | -55.92265 | 37263 ft | 454 kts | 44° |
| 2026-04-22 03:35 | 73.58965 | -55.74640 | 37263 ft | 454 kts | 44° |
| 2026-04-22 03:36 | 73.62832 | -55.56865 | 37263 ft | 454 kts | 44° |
| 2026-04-22 03:36 | 73.66682 | -55.39013 | 37263 ft | 454 kts | 44° |
| 2026-04-22 03:37 | 73.70542 | -55.20967 | 37260 ft | 455 kts | 44° |
| 2026-04-22 03:37 | 73.74324 | -55.03081 | 37259 ft | 447 kts | 44° |
| 2026-04-22 03:38 | 73.78033 | -54.85450 | 37257 ft | 439 kts | 43° |
| 2026-04-22 03:38 | 73.81712 | -54.67842 | 37260 ft | 441 kts | 43° |
| 2026-04-22 03:39 | 73.85377 | -54.50119 | 37259 ft | 441 kts | 43° |
| 2026-04-22 03:39 | 73.89046 | -54.32227 | 37257 ft | 442 kts | 44° |
| 2026-04-22 03:40 | 73.92697 | -54.14271 | 37256 ft | 442 kts | 44° |
| 2026-04-22 03:40 | 73.96300 | -53.96395 | 37256 ft | 442 kts | 44° |
| 2026-04-22 03:41 | 73.99928 | -53.78239 | 37256 ft | 442 kts | 44° |
| 2026-04-22 03:41 | 74.03545 | -53.59985 | 37255 ft | 442 kts | 44° |
| 2026-04-22 03:42 | 74.07124 | -53.41767 | 37255 ft | 442 kts | 44° |
| 2026-04-22 03:42 | 74.10720 | -53.23301 | 37261 ft | 443 kts | 45° |
| 2026-04-22 03:43 | 74.14284 | -53.04838 | 37267 ft | 443 kts | 45° |
| 2026-04-22 03:43 | 74.17803 | -52.86396 | 37268 ft | 437 kts | 45° |
| 2026-04-22 03:44 | 74.21271 | -52.68130 | 37268 ft | 432 kts | 44° |
| 2026-04-22 03:44 | 74.24694 | -52.49955 | 37270 ft | 433 kts | 44° |
| 2026-04-22 03:45 | 74.28133 | -52.31514 | 37267 ft | 434 kts | 45° |
| 2026-04-22 03:45 | 74.31553 | -52.13008 | 37266 ft | 435 kts | 45° |
| 2026-04-22 03:46 | 74.34937 | -51.94529 | 37266 ft | 435 kts | 45° |
| 2026-04-22 03:46 | 74.38328 | -51.75856 | 37266 ft | 435 kts | 45° |
| 2026-04-22 03:47 | 74.41706 | -51.57082 | 37266 ft | 434 kts | 45° |
| 2026-04-22 03:47 | 74.45071 | -51.38211 | 37266 ft | 434 kts | 45° |
| 2026-04-22 03:48 | 74.48401 | -51.19377 | 37264 ft | 436 kts | 46° |
| 2026-04-22 03:48 | 74.51719 | -51.00425 | 37262 ft | 433 kts | 46° |
| 2026-04-22 03:49 | 74.54990 | -50.81576 | 37261 ft | 428 kts | 46° |
| 2026-04-22 03:49 | 74.58237 | -50.62711 | 37263 ft | 429 kts | 46° |
| 2026-04-22 03:50 | 74.61474 | -50.43728 | 37262 ft | 429 kts | 46° |
| 2026-04-22 03:50 | 74.64689 | -50.24697 | 37260 ft | 430 kts | 47° |
| 2026-04-22 03:51 | 74.67883 | -50.05617 | 37259 ft | 430 kts | 47° |
| 2026-04-22 03:51 | 74.71076 | -49.86364 | 37259 ft | 430 kts | 47° |
| 2026-04-22 03:52 | 74.74244 | -49.67091 | 37259 ft | 430 kts | 47° |
| 2026-04-22 03:52 | 74.77412 | -49.47635 | 37259 ft | 430 kts | 47° |
| 2026-04-22 03:53 | 74.80544 | -49.28218 | 37256 ft | 431 kts | 48° |
| 2026-04-22 03:53 | 74.83669 | -49.08631 | 37257 ft | 427 kts | 47° |
| 2026-04-22 03:54 | 74.86711 | -48.89374 | 37252 ft | 418 kts | 47° |
| 2026-04-22 03:54 | 74.89706 | -48.70347 | 37256 ft | 418 kts | 47° |
| 2026-04-22 03:55 | 74.92710 | -48.51024 | 37254 ft | 419 kts | 47° |
| 2026-04-22 03:55 | 74.95697 | -48.31629 | 37251 ft | 419 kts | 48° |
| 2026-04-22 03:56 | 74.98655 | -48.12235 | 37251 ft | 420 kts | 48° |
| 2026-04-22 03:56 | 75.01623 | -47.92593 | 37251 ft | 420 kts | 48° |
| 2026-04-22 03:57 | 75.04552 | -47.73023 | 37251 ft | 420 kts | 48° |
| 2026-04-22 03:57 | 75.07439 | -47.53541 | 37250 ft | 420 kts | 48° |
| 2026-04-22 03:58 | 75.10368 | -47.33596 | 37255 ft | 420 kts | 49° |
| 2026-04-22 03:58 | 75.13258 | -47.13720 | 37270 ft | 421 kts | 49° |
| 2026-04-22 03:59 | 75.16122 | -46.93805 | 37273 ft | 417 kts | 49° |
| 2026-04-22 03:59 | 75.18896 | -46.74323 | 37268 ft | 406 kts | 48° |
| 2026-04-22 04:00 | 75.21652 | -46.54858 | 37273 ft | 407 kts | 48° |
| 2026-04-22 04:00 | 75.24377 | -46.35392 | 37271 ft | 408 kts | 48° |
| 2026-04-22 04:01 | 75.27106 | -46.15697 | 37270 ft | 409 kts | 49° |
| 2026-04-22 04:01 | 75.29808 | -45.96001 | 37268 ft | 409 kts | 49° |
| 2026-04-22 04:02 | 75.32515 | -45.76080 | 37268 ft | 409 kts | 49° |
| 2026-04-22 04:02 | 75.35190 | -45.56198 | 37267 ft | 408 kts | 49° |
| 2026-04-22 04:03 | 75.37833 | -45.36359 | 37267 ft | 408 kts | 49° |
| 2026-04-22 04:03 | 75.40485 | -45.16253 | 37266 ft | 410 kts | 50° |
| 2026-04-22 04:04 | 75.43137 | -44.95999 | 37241 ft | 407 kts | 51° |
| 2026-04-22 04:04 | 75.45692 | -44.76228 | 37234 ft | 400 kts | 52° |
| 2026-04-22 04:05 | 75.48216 | -44.56473 | 37237 ft | 401 kts | 52° |
| 2026-04-22 04:05 | 75.50754 | -44.36435 | 37237 ft | 401 kts | 52° |
| 2026-04-22 04:06 | 75.53254 | -44.16489 | 37236 ft | 402 kts | 53° |
| 2026-04-22 04:06 | 75.55750 | -43.96392 | 37235 ft | 402 kts | 53° |
| 2026-04-22 04:07 | 75.58232 | -43.76193 | 37234 ft | 402 kts | 53° |
| 2026-04-22 04:07 | 75.60689 | -43.55993 | 37234 ft | 402 kts | 53° |
| 2026-04-22 04:08 | 75.63133 | -43.35697 | 37232 ft | 401 kts | 53° |
| 2026-04-22 04:08 | 75.65571 | -43.15245 | 37232 ft | 404 kts | 54° |
| 2026-04-22 04:09 | 75.68031 | -42.94582 | 37233 ft | 412 kts | 57° |
| 2026-04-22 04:09 | 75.70460 | -42.73594 | 37231 ft | 412 kts | 57° |
| 2026-04-22 04:10 | 75.72897 | -42.52420 | 37231 ft | 412 kts | 57° |
| 2026-04-22 04:10 | 75.75306 | -42.31290 | 37231 ft | 412 kts | 58° |
| 2026-04-22 04:11 | 75.77711 | -42.09972 | 37231 ft | 412 kts | 58° |
| 2026-04-22 04:11 | 75.80099 | -41.88572 | 37230 ft | 412 kts | 58° |
| 2026-04-22 04:12 | 75.82448 | -41.67274 | 37230 ft | 412 kts | 58° |
| 2026-04-22 04:12 | 75.84787 | -41.45833 | 37230 ft | 412 kts | 58° |
| 2026-04-22 04:13 | 75.87118 | -41.24210 | 37230 ft | 413 kts | 58° |
| 2026-04-22 04:13 | 75.89415 | -41.02667 | 37229 ft | 413 kts | 59° |
| 2026-04-22 04:14 | 75.91747 | -40.80691 | 37231 ft | 420 kts | 60° |
| 2026-04-22 04:14 | 75.94036 | -40.58603 | 37230 ft | 422 kts | 61° |
| 2026-04-22 04:15 | 75.96327 | -40.36292 | 37229 ft | 421 kts | 60° |
| 2026-04-22 04:15 | 75.98599 | -40.13912 | 37229 ft | 422 kts | 62° |
| 2026-04-22 04:16 | 76.01906 | -39.79963 | 37229 ft | 421 kts | 62° |
| 2026-04-22 04:17 | 76.04050 | -39.57392 | 37229 ft | 421 kts | 62° |
| 2026-04-22 04:17 | 76.06177 | -39.34633 | 37228 ft | 421 kts | 63° |
| 2026-04-22 04:18 | 76.08280 | -39.11828 | 37228 ft | 422 kts | 63° |
| 2026-04-22 04:18 | 76.10384 | -38.88810 | 37235 ft | 427 kts | 64° |
| 2026-04-22 04:19 | 76.12448 | -38.65741 | 37238 ft | 427 kts | 64° |
| 2026-04-22 04:19 | 76.14536 | -38.42133 | 37240 ft | 429 kts | 64° |
| 2026-04-22 04:20 | 76.16586 | -38.18652 | 37240 ft | 430 kts | 65° |
| 2026-04-22 04:20 | 76.18621 | -37.95035 | 37239 ft | 429 kts | 65° |
| 2026-04-22 04:21 | 76.20640 | -37.71267 | 37239 ft | 429 kts | 65° |
| 2026-04-22 04:21 | 76.22611 | -37.47716 | 37239 ft | 429 kts | 65° |
| 2026-04-22 04:22 | 76.24580 | -37.23860 | 37239 ft | 430 kts | 66° |
| 2026-04-22 04:22 | 76.26534 | -36.99907 | 37238 ft | 432 kts | 67° |
| 2026-04-22 04:23 | 76.28467 | -36.75774 | 37238 ft | 433 kts | 67° |
| 2026-04-22 04:23 | 76.30372 | -36.51623 | 37238 ft | 433 kts | 67° |
| 2026-04-22 04:24 | 76.32268 | -36.27238 | 37238 ft | 434 kts | 68° |
| 2026-04-22 04:24 | 76.34129 | -36.02940 | 37237 ft | 434 kts | 68° |
| 2026-04-22 04:25 | 76.35979 | -35.78420 | 37237 ft | 433 kts | 68° |
| 2026-04-22 04:25 | 76.37792 | -35.53997 | 37237 ft | 433 kts | 68° |
| 2026-04-22 04:26 | 76.39598 | -35.29282 | 37237 ft | 434 kts | 69° |
| 2026-04-22 04:26 | 76.41358 | -35.04800 | 37354 ft | 433 kts | 69° |
| 2026-04-22 04:27 | 76.43120 | -34.79959 | 37540 ft | 437 kts | 69° |
| 2026-04-22 04:27 | 76.44860 | -34.54921 | 37615 ft | 443 kts | 69° |
| 2026-04-22 04:28 | 76.46583 | -34.29698 | 37613 ft | 442 kts | 70° |
| 2026-04-22 04:28 | 76.48283 | -34.04416 | 37614 ft | 442 kts | 70° |
| 2026-04-22 04:29 | 76.49957 | -33.79057 | 37614 ft | 442 kts | 70° |
| 2026-04-22 04:29 | 76.51601 | -33.53725 | 37614 ft | 441 kts | 70° |
| 2026-04-22 04:30 | 76.53220 | -33.28321 | 37614 ft | 442 kts | 71° |
| 2026-04-22 04:30 | 76.54825 | -33.02694 | 37613 ft | 443 kts | 71° |
| 2026-04-22 04:31 | 76.56408 | -32.76938 | 37615 ft | 446 kts | 71° |
| 2026-04-22 04:31 | 76.57970 | -32.50990 | 37613 ft | 446 kts | 71° |
| 2026-04-22 04:32 | 76.59508 | -32.24967 | 37614 ft | 446 kts | 72° |
| 2026-04-22 04:32 | 76.61008 | -31.99084 | 37613 ft | 446 kts | 72° |
| 2026-04-22 04:33 | 76.62495 | -31.72921 | 37613 ft | 446 kts | 72° |
| 2026-04-22 04:33 | 76.63949 | -31.46790 | 37613 ft | 446 kts | 72° |
| 2026-04-22 04:34 | 76.65376 | -31.20617 | 37613 ft | 446 kts | 73° |
| 2026-04-22 04:34 | 76.66784 | -30.94322 | 37615 ft | 448 kts | 74° |
| 2026-04-22 04:35 | 76.68164 | -30.67828 | 37613 ft | 448 kts | 74° |
| 2026-04-22 04:35 | 76.69515 | -30.41362 | 37613 ft | 447 kts | 74° |
| 2026-04-22 04:36 | 76.70836 | -30.14921 | 37613 ft | 448 kts | 75° |
| 2026-04-22 04:36 | 76.72136 | -29.88300 | 37613 ft | 448 kts | 75° |
| 2026-04-22 04:37 | 76.73402 | -29.61760 | 37612 ft | 448 kts | 75° |
| 2026-04-22 04:37 | 76.74647 | -29.35021 | 37613 ft | 448 kts | 75° |
| 2026-04-22 04:38 | 76.75864 | -29.08238 | 37613 ft | 448 kts | 76° |
| 2026-04-22 04:38 | 76.77051 | -28.81512 | 37613 ft | 450 kts | 76° |
| 2026-04-22 04:39 | 76.78219 | -28.54433 | 37613 ft | 450 kts | 76° |
| 2026-04-22 04:39 | 76.79350 | -28.27537 | 37612 ft | 450 kts | 77° |
| 2026-04-22 04:40 | 76.80459 | -28.00458 | 37613 ft | 450 kts | 77° |
| 2026-04-22 04:40 | 76.81540 | -27.73331 | 37613 ft | 450 kts | 77° |
| 2026-04-22 04:41 | 76.82594 | -27.46135 | 37613 ft | 450 kts | 77° |
| 2026-04-22 04:41 | 76.83617 | -27.18904 | 37613 ft | 450 kts | 78° |
| 2026-04-22 04:42 | 76.84611 | -26.91718 | 37612 ft | 449 kts | 78° |
| 2026-04-22 04:42 | 76.85564 | -26.64767 | 37612 ft | 448 kts | 78° |
| 2026-04-22 04:43 | 76.86502 | -26.37445 | 37613 ft | 449 kts | 78° |
| 2026-04-22 04:43 | 76.87407 | -26.10192 | 37613 ft | 449 kts | 79° |
| 2026-04-22 04:44 | 76.88286 | -25.82825 | 37612 ft | 449 kts | 79° |
| 2026-04-22 04:44 | 76.89134 | -25.55457 | 37612 ft | 449 kts | 79° |
| 2026-04-22 04:45 | 76.89956 | -25.28000 | 37612 ft | 449 kts | 80° |
| 2026-04-22 04:45 | 76.90744 | -25.00838 | 37612 ft | 447 kts | 81° |
| 2026-04-22 04:46 | 76.91502 | -24.73478 | 37565 ft | 446 kts | 81° |
| 2026-04-22 04:46 | 76.92223 | -24.46333 | 37512 ft | 446 kts | 81° |
| 2026-04-22 04:47 | 76.92923 | -24.18977 | 37505 ft | 446 kts | 82° |
| 2026-04-22 04:47 | 76.93593 | -23.91648 | 37504 ft | 446 kts | 82° |
| 2026-04-22 04:48 | 76.94233 | -23.64332 | 37505 ft | 446 kts | 82° |
| 2026-04-22 04:48 | 76.94841 | -23.37176 | 37504 ft | 446 kts | 82° |
| 2026-04-22 04:49 | 76.95427 | -23.09676 | 37505 ft | 447 kts | 83° |
| 2026-04-22 04:49 | 76.95984 | -22.82237 | 37506 ft | 448 kts | 83° |
| 2026-04-22 04:50 | 76.96510 | -22.54757 | 37505 ft | 447 kts | 83° |
| 2026-04-22 04:50 | 76.97004 | -22.27414 | 37505 ft | 448 kts | 84° |
| 2026-04-22 04:51 | 76.97472 | -21.99918 | 37505 ft | 448 kts | 84° |
| 2026-04-22 04:51 | 76.97914 | -21.72223 | 37505 ft | 448 kts | 84° |
| 2026-04-22 04:52 | 76.98325 | -21.44692 | 37505 ft | 447 kts | 84° |
| 2026-04-22 04:52 | 76.98705 | -21.17162 | 37505 ft | 448 kts | 85° |
| 2026-04-22 04:53 | 76.99062 | -20.89446 | 37505 ft | 451 kts | 85° |
| 2026-04-22 04:53 | 76.99384 | -20.61776 | 37505 ft | 453 kts | 85° |
| 2026-04-22 04:54 | 76.99682 | -20.33684 | 37505 ft | 452 kts | 86° |
| 2026-04-22 04:54 | 76.99733 | -20.05831 | 37505 ft | 452 kts | 92° |
| 2026-04-22 04:55 | 76.98794 | -19.78342 | 37507 ft | 453 kts | 100° |
| 2026-04-22 04:55 | 76.97466 | -19.50827 | 37505 ft | 453 kts | 101° |
| 2026-04-22 04:56 | 76.96048 | -19.23567 | 37505 ft | 453 kts | 102° |
| 2026-04-22 04:56 | 76.94595 | -18.96412 | 37506 ft | 453 kts | 103° |
| 2026-04-22 04:57 | 76.93111 | -18.69517 | 37506 ft | 453 kts | 103° |
| 2026-04-22 04:57 | 76.91589 | -18.42443 | 37506 ft | 453 kts | 103° |
| 2026-04-22 04:58 | 76.90050 | -18.15602 | 37506 ft | 453 kts | 104° |
| 2026-04-22 04:58 | 76.88477 | -17.88719 | 37506 ft | 453 kts | 104° |
| 2026-04-22 04:59 | 76.86877 | -17.61910 | 37506 ft | 453 kts | 104° |
| 2026-04-22 04:59 | 76.85255 | -17.35264 | 37506 ft | 453 kts | 104° |
| 2026-04-22 05:00 | 76.83590 | -17.08427 | 37506 ft | 453 kts | 105° |
| 2026-04-22 05:00 | 76.81915 | -16.81855 | 37507 ft | 455 kts | 106° |
| 2026-04-22 05:01 | 76.80200 | -16.55288 | 37506 ft | 454 kts | 106° |
| 2026-04-22 05:01 | 76.78455 | -16.28730 | 37506 ft | 454 kts | 107° |
| 2026-04-22 05:02 | 76.76681 | -16.02201 | 37506 ft | 454 kts | 107° |
| 2026-04-22 05:02 | 76.74880 | -15.75718 | 37506 ft | 454 kts | 107° |
| 2026-04-22 05:03 | 76.73063 | -15.49488 | 37506 ft | 454 kts | 107° |
| 2026-04-22 05:03 | 76.71207 | -15.23144 | 37506 ft | 454 kts | 108° |
| 2026-04-22 05:04 | 76.69330 | -14.96927 | 37507 ft | 455 kts | 108° |
| 2026-04-22 05:04 | 76.67425 | -14.70778 | 37582 ft | 453 kts | 109° |
| 2026-04-22 05:05 | 76.65482 | -14.44636 | 37612 ft | 454 kts | 109° |
| 2026-04-22 05:05 | 76.63512 | -14.18517 | 37614 ft | 454 kts | 110° |
| 2026-04-22 05:06 | 76.61530 | -13.92635 | 37614 ft | 454 kts | 110° |
| 2026-04-22 05:06 | 76.59515 | -13.66778 | 37614 ft | 454 kts | 110° |
| 2026-04-22 05:07 | 76.57468 | -13.40899 | 37615 ft | 454 kts | 110° |
| 2026-04-22 05:07 | 76.55394 | -13.15092 | 37614 ft | 454 kts | 111° |
| 2026-04-22 05:08 | 76.53293 | -12.89310 | 37615 ft | 459 kts | 111° |
| 2026-04-22 05:08 | 76.51142 | -12.63415 | 37614 ft | 458 kts | 111° |
| 2026-04-22 05:09 | 76.48965 | -12.37584 | 37615 ft | 458 kts | 111° |
| 2026-04-22 05:09 | 76.46770 | -12.11899 | 37614 ft | 458 kts | 112° |
| 2026-04-22 05:10 | 76.44534 | -11.86150 | 37614 ft | 458 kts | 112° |
| 2026-04-22 05:10 | 76.42300 | -11.60793 | 37614 ft | 458 kts | 112° |
| 2026-04-22 05:11 | 76.40011 | -11.35186 | 37614 ft | 458 kts | 112° |
| 2026-04-22 05:11 | 76.37718 | -11.09910 | 37614 ft | 458 kts | 113° |
| 2026-04-22 05:12 | 76.35391 | -10.84581 | 37614 ft | 461 kts | 114° |
| 2026-04-22 05:12 | 76.33014 | -10.59154 | 37614 ft | 461 kts | 114° |
| 2026-04-22 05:13 | 76.30615 | -10.33827 | 37613 ft | 461 kts | 115° |
| 2026-04-22 05:13 | 76.28194 | -10.08619 | 37612 ft | 461 kts | 115° |
| 2026-04-22 05:14 | 76.25754 | -9.83571 | 37614 ft | 461 kts | 115° |
| 2026-04-22 05:14 | 76.23291 | -9.58630 | 37613 ft | 461 kts | 115° |
| 2026-04-22 05:15 | 76.20782 | -9.33554 | 37616 ft | 461 kts | 116° |
| 2026-04-22 05:15 | 76.18286 | -9.08966 | 37613 ft | 461 kts | 116° |
| 2026-04-22 05:16 | 76.15724 | -8.84005 | 37612 ft | 465 kts | 116° |
| 2026-04-22 05:16 | 76.13137 | -8.59205 | 37614 ft | 464 kts | 116° |
| 2026-04-22 05:17 | 76.10510 | -8.34356 | 37616 ft | 464 kts | 117° |
| 2026-04-22 05:17 | 76.07896 | -8.09907 | 37610 ft | 463 kts | 117° |
| 2026-04-22 05:18 | 76.03896 | -7.73145 | 37615 ft | 464 kts | 117° |
| 2026-04-22 05:18 | 76.01186 | -7.48621 | 37612 ft | 464 kts | 117° |
| 2026-04-22 05:19 | 75.98493 | -7.24568 | 37611 ft | 463 kts | 118° |
| 2026-04-22 05:19 | 75.95750 | -7.00342 | 37453 ft | 463 kts | 118° |
| 2026-04-22 05:20 | 75.92991 | -6.76338 | 37475 ft | 464 kts | 118° |
| 2026-04-22 05:20 | 75.90206 | -6.52373 | 37477 ft | 465 kts | 118° |
| 2026-04-22 05:21 | 75.87409 | -6.28596 | 37478 ft | 464 kts | 119° |
| 2026-04-22 05:21 | 75.84584 | -6.04887 | 37481 ft | 464 kts | 119° |
| 2026-04-22 05:22 | 75.81735 | -5.81251 | 37479 ft | 465 kts | 120° |
| 2026-04-22 05:22 | 75.78848 | -5.57597 | 37482 ft | 464 kts | 119° |
| 2026-04-22 05:23 | 75.75947 | -5.34096 | 37544 ft | 464 kts | 120° |
| 2026-04-22 05:23 | 75.73005 | -5.10558 | 37613 ft | 465 kts | 121° |
| 2026-04-22 05:24 | 75.70060 | -4.87224 | 37615 ft | 466 kts | 121° |
| 2026-04-22 05:24 | 75.67055 | -4.63748 | 37614 ft | 466 kts | 121° |
| 2026-04-22 05:25 | 75.64054 | -4.40595 | 37617 ft | 467 kts | 121° |
| 2026-04-22 05:25 | 75.61009 | -4.17336 | 37612 ft | 466 kts | 122° |
| 2026-04-22 05:26 | 75.57938 | -3.94160 | 37615 ft | 467 kts | 122° |
| 2026-04-22 05:26 | 75.54871 | -3.71266 | 37614 ft | 466 kts | 122° |
| 2026-04-22 05:27 | 75.51756 | -3.48291 | 37617 ft | 467 kts | 122° |
| 2026-04-22 05:27 | 75.48629 | -3.25477 | 37614 ft | 466 kts | 123° |
| 2026-04-22 05:28 | 75.45499 | -3.02884 | 37614 ft | 465 kts | 123° |
| 2026-04-22 05:28 | 75.42348 | -2.80363 | 37613 ft | 461 kts | 124° |
| 2026-04-22 05:29 | 75.39181 | -2.58058 | 37605 ft | 462 kts | 124° |
| 2026-04-22 05:29 | 75.37588 | -2.46922 | 37455 ft | 463 kts | 124° |
| 2026-04-22 05:29 | 75.36002 | -2.35881 | 37296 ft | 462 kts | 124° |
| 2026-04-22 05:30 | 75.32823 | -2.13935 | 37264 ft | 461 kts | 125° |
| 2026-04-22 05:30 | 75.29598 | -1.91906 | 37262 ft | 461 kts | 125° |
| 2026-04-22 05:31 | 75.26354 | -1.69970 | 37261 ft | 461 kts | 125° |
| 2026-04-22 05:31 | 75.23084 | -1.48117 | 37262 ft | 462 kts | 125° |
| 2026-04-22 05:32 | 75.19820 | -1.26510 | 37260 ft | 461 kts | 126° |
| 2026-04-22 05:32 | 75.16523 | -1.04909 | 37236 ft | 459 kts | 127° |
| 2026-04-22 05:33 | 75.13219 | -0.83494 | 37200 ft | 457 kts | 127° |
| 2026-04-22 05:33 | 75.09911 | -0.62290 | 37179 ft | 459 kts | 127° |
| 2026-04-22 05:34 | 75.06556 | -0.41002 | 37180 ft | 459 kts | 127° |
| 2026-04-22 05:34 | 75.03202 | -0.19911 | 37176 ft | 455 kts | 128° |
| 2026-04-22 05:35 | 74.99882 | 0.00789 | 37176 ft | 453 kts | 127° |
| 2026-04-22 05:35 | 74.96594 | 0.21715 | 37178 ft | 454 kts | 127° |
| 2026-04-22 05:36 | 74.93292 | 0.42550 | 37178 ft | 455 kts | 127° |
| 2026-04-22 05:36 | 74.89964 | 0.63340 | 37178 ft | 455 kts | 127° |
| 2026-04-22 05:37 | 74.86613 | 0.84065 | 37184 ft | 454 kts | 128° |
| 2026-04-22 05:37 | 74.83275 | 1.04518 | 37185 ft | 454 kts | 128° |
| 2026-04-22 05:38 | 74.79917 | 1.24927 | 37186 ft | 453 kts | 129° |
| 2026-04-22 05:38 | 74.76530 | 1.45225 | 37186 ft | 453 kts | 129° |
| 2026-04-22 05:39 | 74.73122 | 1.65480 | 37186 ft | 453 kts | 130° |
| 2026-04-22 05:39 | 74.69720 | 1.85524 | 37184 ft | 452 kts | 130° |
| 2026-04-22 05:40 | 74.66293 | 2.05518 | 37184 ft | 452 kts | 130° |
| 2026-04-22 05:40 | 74.62833 | 2.25505 | 37184 ft | 452 kts | 130° |
| 2026-04-22 05:41 | 74.59364 | 2.45363 | 37184 ft | 453 kts | 130° |
| 2026-04-22 05:41 | 74.55863 | 2.65213 | 37184 ft | 453 kts | 131° |
| 2026-04-22 05:42 | 74.52351 | 2.84941 | 37182 ft | 452 kts | 131° |
| 2026-04-22 05:42 | 74.48846 | 3.04492 | 37182 ft | 451 kts | 131° |
| 2026-04-22 05:43 | 74.45316 | 3.23950 | 37182 ft | 451 kts | 132° |
| 2026-04-22 05:43 | 74.41756 | 3.43360 | 37182 ft | 451 kts | 132° |
| 2026-04-22 05:44 | 74.38196 | 3.62627 | 37182 ft | 451 kts | 132° |
| 2026-04-22 05:44 | 74.34618 | 3.81814 | 37179 ft | 450 kts | 133° |
| 2026-04-22 05:45 | 74.31022 | 4.00925 | 37180 ft | 450 kts | 133° |
| 2026-04-22 05:45 | 74.27415 | 4.19917 | 37180 ft | 451 kts | 133° |
| 2026-04-22 05:46 | 74.23800 | 4.38789 | 37179 ft | 451 kts | 133° |
| 2026-04-22 05:46 | 74.20146 | 4.57687 | 37180 ft | 451 kts | 133° |
| 2026-04-22 05:47 | 74.16480 | 4.76484 | 37175 ft | 450 kts | 134° |
| 2026-04-22 05:47 | 74.12820 | 4.95086 | 37177 ft | 454 kts | 134° |
| 2026-04-22 05:48 | 74.09103 | 5.13803 | 37178 ft | 457 kts | 134° |
| 2026-04-22 05:48 | 74.05334 | 5.32619 | 37177 ft | 457 kts | 134° |
| 2026-04-22 05:49 | 74.01552 | 5.51332 | 37178 ft | 457 kts | 134° |
| 2026-04-22 05:49 | 73.97753 | 5.69963 | 37182 ft | 454 kts | 135° |
| 2026-04-22 05:50 | 73.94013 | 5.88147 | 37175 ft | 450 kts | 135° |
| 2026-04-22 05:50 | 73.90240 | 6.06325 | 37175 ft | 451 kts | 135° |
| 2026-04-22 05:51 | 73.86447 | 6.24446 | 37187 ft | 452 kts | 135° |
| 2026-04-22 05:51 | 73.82633 | 6.42511 | 37188 ft | 452 kts | 135° |
| 2026-04-22 05:52 | 73.78806 | 6.60485 | 37188 ft | 452 kts | 135° |
| 2026-04-22 05:52 | 73.74983 | 6.78298 | 37183 ft | 451 kts | 136° |
| 2026-04-22 05:53 | 73.71145 | 6.96012 | 37184 ft | 451 kts | 136° |
| 2026-04-22 05:53 | 73.67259 | 7.13776 | 37184 ft | 450 kts | 136° |
| 2026-04-22 05:54 | 73.63412 | 7.31257 | 37184 ft | 450 kts | 135° |
| 2026-04-22 05:54 | 73.59515 | 7.48819 | 37182 ft | 450 kts | 135° |
| 2026-04-22 05:55 | 73.55614 | 7.66243 | 37126 ft | 450 kts | 136° |
| 2026-04-22 05:55 | 73.51703 | 7.83565 | 37102 ft | 449 kts | 136° |
| 2026-04-22 05:56 | 73.47774 | 8.00820 | 37101 ft | 449 kts | 136° |
| 2026-04-22 05:56 | 73.43841 | 8.17954 | 37101 ft | 450 kts | 136° |
| 2026-04-22 05:57 | 73.39882 | 8.35062 | 37101 ft | 450 kts | 136° |
| 2026-04-22 05:57 | 73.35918 | 8.52050 | 37101 ft | 450 kts | 136° |
| 2026-04-22 05:58 | 73.31938 | 8.68970 | 37100 ft | 449 kts | 137° |
| 2026-04-22 05:58 | 73.27949 | 8.85792 | 37098 ft | 449 kts | 137° |
| 2026-04-22 05:59 | 73.23942 | 9.02564 | 37098 ft | 450 kts | 137° |
| 2026-04-22 05:59 | 73.19910 | 9.19299 | 37098 ft | 451 kts | 138° |
| 2026-04-22 06:00 | 73.15854 | 9.35989 | 37098 ft | 451 kts | 138° |
| 2026-04-22 06:00 | 73.11795 | 9.52562 | 37099 ft | 452 kts | 138° |
| 2026-04-22 06:01 | 73.07729 | 9.69040 | 37097 ft | 451 kts | 139° |
| 2026-04-22 06:01 | 73.03629 | 9.85521 | 37095 ft | 451 kts | 139° |
| 2026-04-22 06:02 | 72.99529 | 10.02043 | 37093 ft | 454 kts | 135° |
| 2026-04-22 06:02 | 72.95802 | 10.19754 | 37095 ft | 456 kts | 134° |
| 2026-04-22 06:03 | 72.92057 | 10.37242 | 37095 ft | 456 kts | 134° |
| 2026-04-22 06:03 | 72.88283 | 10.54715 | 37109 ft | 456 kts | 134° |
| 2026-04-22 06:04 | 72.84492 | 10.72123 | 37091 ft | 455 kts | 135° |
| 2026-04-22 06:04 | 72.80717 | 10.89288 | 37076 ft | 456 kts | 134° |
| 2026-04-22 06:05 | 72.76911 | 11.06439 | 37073 ft | 455 kts | 133° |
| 2026-04-22 06:05 | 72.73099 | 11.23565 | 37077 ft | 456 kts | 133° |
| 2026-04-22 06:06 | 72.69272 | 11.40587 | 37077 ft | 456 kts | 133° |
| 2026-04-22 06:06 | 72.65422 | 11.57562 | 37077 ft | 456 kts | 133° |
| 2026-04-22 06:07 | 72.61553 | 11.74489 | 37073 ft | 455 kts | 134° |
| 2026-04-22 06:07 | 72.57675 | 11.91314 | 37074 ft | 455 kts | 134° |
| 2026-04-22 06:08 | 72.53789 | 12.08044 | 37074 ft | 455 kts | 134° |
| 2026-04-22 06:08 | 72.49884 | 12.24720 | 37074 ft | 455 kts | 134° |
| 2026-04-22 06:09 | 72.45957 | 12.41360 | 37075 ft | 456 kts | 134° |
| 2026-04-22 06:09 | 72.42013 | 12.57941 | 37075 ft | 456 kts | 134° |
| 2026-04-22 06:10 | 72.38081 | 12.74343 | 37071 ft | 455 kts | 135° |
| 2026-04-22 06:10 | 72.34150 | 12.90616 | 37072 ft | 455 kts | 135° |
| 2026-04-22 06:11 | 72.30176 | 13.06914 | 37065 ft | 456 kts | 134° |
| 2026-04-22 06:11 | 72.26186 | 13.23157 | 37048 ft | 458 kts | 134° |
| 2026-04-22 06:12 | 72.22147 | 13.39525 | 37038 ft | 458 kts | 134° |
| 2026-04-22 06:12 | 72.18134 | 13.55641 | 37034 ft | 458 kts | 134° |
| 2026-04-22 06:13 | 72.14072 | 13.71819 | 37018 ft | 458 kts | 135° |
| 2026-04-22 06:13 | 72.10037 | 13.87768 | 37017 ft | 458 kts | 135° |
| 2026-04-22 06:14 | 72.05952 | 14.03790 | 37017 ft | 458 kts | 135° |
| 2026-04-22 06:14 | 72.01866 | 14.19697 | 37017 ft | 458 kts | 135° |
| 2026-04-22 06:15 | 71.97772 | 14.35517 | 37018 ft | 458 kts | 135° |
| 2026-04-22 06:15 | 71.93666 | 14.51260 | 37018 ft | 458 kts | 135° |
| 2026-04-22 06:16 | 71.89537 | 14.66977 | 37019 ft | 458 kts | 135° |
| 2026-04-22 06:16 | 71.85410 | 14.82569 | 37021 ft | 457 kts | 135° |
| 2026-04-22 06:17 | 71.81239 | 14.98194 | 37021 ft | 459 kts | 135° |
| 2026-04-22 06:17 | 71.77045 | 15.13797 | 37022 ft | 462 kts | 135° |
| 2026-04-22 06:18 | 71.72829 | 15.29384 | 37021 ft | 462 kts | 135° |
| 2026-04-22 06:18 | 71.68608 | 15.44865 | 37022 ft | 462 kts | 135° |
| 2026-04-22 06:19 | 71.64374 | 15.60277 | 37022 ft | 462 kts | 135° |
| 2026-04-22 06:19 | 71.60127 | 15.75623 | 37019 ft | 462 kts | 136° |
| 2026-04-22 06:20 | 71.55870 | 15.90897 | 37019 ft | 460 kts | 136° |
| 2026-04-22 06:20 | 71.51585 | 16.06149 | 37021 ft | 460 kts | 136° |
| 2026-04-22 06:21 | 71.47340 | 16.21150 | 37020 ft | 460 kts | 136° |
| 2026-04-22 06:21 | 71.43044 | 16.36226 | 37020 ft | 460 kts | 136° |
| 2026-04-22 06:22 | 71.38753 | 16.51176 | 37021 ft | 460 kts | 136° |
| 2026-04-22 06:22 | 71.34481 | 16.65953 | 37021 ft | 460 kts | 137° |
| 2026-04-22 06:23 | 71.30126 | 16.80908 | 37018 ft | 460 kts | 137° |
| 2026-04-22 06:23 | 71.25803 | 16.95643 | 37019 ft | 462 kts | 137° |
| 2026-04-22 06:24 | 71.19222 | 17.17887 | 37019 ft | 464 kts | 136° |
| 2026-04-22 06:25 | 71.14854 | 17.32519 | 37019 ft | 463 kts | 136° |
| 2026-04-22 06:25 | 71.10449 | 17.47170 | 37003 ft | 463 kts | 136° |
| 2026-04-22 06:26 | 71.06070 | 17.61631 | 36993 ft | 463 kts | 136° |
| 2026-04-22 06:26 | 71.01650 | 17.76129 | 36990 ft | 463 kts | 137° |
| 2026-04-22 06:27 | 70.97218 | 17.90557 | 36991 ft | 463 kts | 137° |
| 2026-04-22 06:27 | 70.92763 | 18.04959 | 36991 ft | 463 kts | 137° |
| 2026-04-22 06:28 | 70.88300 | 18.19291 | 36995 ft | 463 kts | 137° |
| 2026-04-22 06:28 | 70.83869 | 18.33422 | 36995 ft | 463 kts | 137° |
| 2026-04-22 06:29 | 70.79372 | 18.47663 | 36995 ft | 463 kts | 137° |
| 2026-04-22 06:29 | 70.74903 | 18.61716 | 36996 ft | 464 kts | 137° |
| 2026-04-22 06:30 | 70.70383 | 18.75839 | 36992 ft | 463 kts | 139° |
| 2026-04-22 06:30 | 70.65873 | 18.89825 | 36993 ft | 463 kts | 139° |
| 2026-04-22 06:31 | 70.61357 | 19.03949 | 36992 ft | 466 kts | 136° |
| 2026-04-22 06:31 | 70.56956 | 19.18282 | 36993 ft | 469 kts | 136° |
| 2026-04-22 06:32 | 70.52474 | 19.32824 | 36993 ft | 470 kts | 136° |
| 2026-04-22 06:32 | 70.48003 | 19.47226 | 36994 ft | 470 kts | 136° |
| 2026-04-22 06:33 | 70.43540 | 19.61502 | 36995 ft | 470 kts | 136° |
| 2026-04-22 06:33 | 70.39028 | 19.75836 | 36979 ft | 470 kts | 137° |
| 2026-04-22 06:34 | 70.34541 | 19.89990 | 36932 ft | 470 kts | 137° |
| 2026-04-22 06:34 | 70.30046 | 20.04073 | 36912 ft | 469 kts | 137° |
| 2026-04-22 06:35 | 70.25533 | 20.18116 | 36912 ft | 470 kts | 137° |
| 2026-04-22 06:35 | 70.21021 | 20.32070 | 36941 ft | 468 kts | 137° |
| 2026-04-22 06:36 | 70.16492 | 20.45965 | 36940 ft | 469 kts | 137° |
| 2026-04-22 06:36 | 70.11940 | 20.59845 | 36940 ft | 469 kts | 137° |
| 2026-04-22 06:37 | 70.07408 | 20.73574 | 36936 ft | 468 kts | 138° |
| 2026-04-22 06:37 | 70.02837 | 20.87323 | 36938 ft | 468 kts | 138° |
| 2026-04-22 06:38 | 69.98235 | 21.01056 | 36939 ft | 471 kts | 137° |
| 2026-04-22 06:38 | 69.93626 | 21.14733 | 36940 ft | 474 kts | 137° |
| 2026-04-22 06:39 | 69.88992 | 21.28417 | 36939 ft | 474 kts | 137° |
| 2026-04-22 06:39 | 69.84350 | 21.42016 | 36940 ft | 474 kts | 137° |
| 2026-04-22 06:40 | 69.79704 | 21.55532 | 36940 ft | 474 kts | 137° |
| 2026-04-22 06:40 | 69.75013 | 21.69093 | 36920 ft | 474 kts | 138° |
| 2026-04-22 06:41 | 69.70312 | 21.82592 | 36892 ft | 474 kts | 138° |
| 2026-04-22 06:41 | 69.65634 | 21.95931 | 36888 ft | 474 kts | 138° |
| 2026-04-22 06:42 | 69.60929 | 22.09263 | 36865 ft | 474 kts | 138° |
| 2026-04-22 06:42 | 69.56222 | 22.22513 | 36859 ft | 474 kts | 138° |
| 2026-04-22 06:43 | 69.51495 | 22.35735 | 36857 ft | 474 kts | 138° |
| 2026-04-22 06:43 | 69.46736 | 22.48956 | 36814 ft | 474 kts | 138° |
| 2026-04-22 06:44 | 69.42005 | 22.62016 | 36778 ft | 474 kts | 138° |
| 2026-04-22 06:44 | 69.37268 | 22.75008 | 36776 ft | 473 kts | 139° |
| 2026-04-22 06:45 | 69.32496 | 22.88003 | 36777 ft | 473 kts | 139° |
| 2026-04-22 06:45 | 69.27749 | 23.00844 | 36777 ft | 472 kts | 138° |
| 2026-04-22 06:46 | 69.22986 | 23.13671 | 36771 ft | 472 kts | 138° |
| 2026-04-22 06:46 | 69.18213 | 23.26436 | 36763 ft | 472 kts | 138° |
| 2026-04-22 06:47 | 69.13435 | 23.39129 | 36756 ft | 472 kts | 138° |
| 2026-04-22 06:47 | 69.08665 | 23.51718 | 36752 ft | 472 kts | 138° |
| 2026-04-22 06:48 | 69.03873 | 23.64288 | 36752 ft | 472 kts | 138° |
| 2026-04-22 06:48 | 68.99060 | 23.76833 | 36750 ft | 471 kts | 139° |
| 2026-04-22 06:49 | 68.94267 | 23.89248 | 36751 ft | 472 kts | 139° |
| 2026-04-22 06:49 | 68.89405 | 24.01762 | 36750 ft | 472 kts | 139° |
| 2026-04-22 06:50 | 68.84587 | 24.14086 | 36750 ft | 472 kts | 139° |
| 2026-04-22 06:50 | 68.79765 | 24.26349 | 36750 ft | 472 kts | 139° |
| 2026-04-22 06:51 | 68.74906 | 24.38624 | 36747 ft | 472 kts | 139° |
| 2026-04-22 06:51 | 68.70037 | 24.50852 | 36736 ft | 471 kts | 139° |
| 2026-04-22 06:52 | 68.65183 | 24.62965 | 36726 ft | 471 kts | 139° |
| 2026-04-22 06:52 | 68.60317 | 24.75031 | 36722 ft | 471 kts | 140° |
| 2026-04-22 06:53 | 68.55421 | 24.87102 | 36722 ft | 471 kts | 140° |
| 2026-04-22 06:53 | 68.50627 | 24.99274 | 36721 ft | 471 kts | 133° |
| 2026-04-22 06:54 | 68.46772 | 25.13709 | 36726 ft | 466 kts | 126° |
| 2026-04-22 06:54 | 68.42963 | 25.27992 | 36722 ft | 462 kts | 127° |
| 2026-04-22 06:55 | 68.39152 | 25.42090 | 36723 ft | 463 kts | 127° |
| 2026-04-22 06:55 | 68.35309 | 25.56184 | 36723 ft | 464 kts | 127° |
| 2026-04-22 06:56 | 68.31461 | 25.70201 | 36722 ft | 463 kts | 128° |
| 2026-04-22 06:56 | 68.27593 | 25.84196 | 36723 ft | 463 kts | 128° |
| 2026-04-22 06:57 | 68.23744 | 25.98037 | 36717 ft | 463 kts | 128° |
| 2026-04-22 06:57 | 68.19835 | 26.12003 | 36669 ft | 463 kts | 128° |
| 2026-04-22 06:58 | 68.15920 | 26.25900 | 36642 ft | 463 kts | 128° |
| 2026-04-22 06:58 | 68.12019 | 26.39659 | 36645 ft | 463 kts | 128° |
| 2026-04-22 06:59 | 68.08101 | 26.53395 | 36643 ft | 463 kts | 128° |
| 2026-04-22 06:59 | 68.04158 | 26.67129 | 36643 ft | 463 kts | 129° |
| 2026-04-22 07:00 | 68.00223 | 26.80750 | 36641 ft | 463 kts | 129° |
| 2026-04-22 07:00 | 67.96266 | 26.94353 | 36641 ft | 464 kts | 129° |
| 2026-04-22 07:01 | 67.92251 | 27.08064 | 36643 ft | 468 kts | 128° |
| 2026-04-22 07:01 | 67.88251 | 27.21659 | 36640 ft | 469 kts | 128° |
| 2026-04-22 07:02 | 67.84190 | 27.35378 | 36641 ft | 468 kts | 128° |
| 2026-04-22 07:02 | 67.80134 | 27.48986 | 36642 ft | 468 kts | 128° |
| 2026-04-22 07:03 | 67.76098 | 27.62441 | 36642 ft | 468 kts | 128° |
| 2026-04-22 07:03 | 67.71999 | 27.76025 | 36640 ft | 468 kts | 129° |
| 2026-04-22 07:04 | 67.67921 | 27.89448 | 36641 ft | 468 kts | 129° |
| 2026-04-22 07:04 | 67.63823 | 28.02858 | 36642 ft | 468 kts | 129° |
| 2026-04-22 07:05 | 67.59722 | 28.16194 | 36641 ft | 468 kts | 129° |
| 2026-04-22 07:05 | 67.55601 | 28.29516 | 36645 ft | 468 kts | 129° |
| 2026-04-22 07:06 | 67.51492 | 28.42716 | 36668 ft | 468 kts | 129° |
| 2026-04-22 07:06 | 67.47348 | 28.55947 | 36660 ft | 468 kts | 129° |
| 2026-04-22 07:07 | 67.43208 | 28.69087 | 36632 ft | 468 kts | 130° |
| 2026-04-22 07:07 | 67.39033 | 28.82255 | 36616 ft | 468 kts | 130° |
| 2026-04-22 07:08 | 67.34880 | 28.95264 | 36616 ft | 471 kts | 129° |
| 2026-04-22 07:08 | 67.30651 | 29.08442 | 36616 ft | 472 kts | 129° |
| 2026-04-22 07:09 | 67.26437 | 29.21511 | 36616 ft | 472 kts | 129° |
| 2026-04-22 07:09 | 67.22192 | 29.34466 | 36615 ft | 472 kts | 132° |
| 2026-04-22 07:10 | 67.17145 | 29.45391 | 36623 ft | 472 kts | 144° |
| 2026-04-22 07:10 | 67.11768 | 29.55105 | 36617 ft | 472 kts | 145° |
| 2026-04-22 07:11 | 67.06326 | 29.64606 | 36618 ft | 472 kts | 146° |
| 2026-04-22 07:11 | 67.00863 | 29.74044 | 36616 ft | 472 kts | 147° |
| 2026-04-22 07:12 | 66.95376 | 29.83461 | 36617 ft | 472 kts | 147° |
| 2026-04-22 07:12 | 66.89938 | 29.92744 | 36617 ft | 472 kts | 147° |
| 2026-04-22 07:13 | 66.84453 | 30.02053 | 36613 ft | 472 kts | 147° |
| 2026-04-22 07:13 | 66.78973 | 30.11303 | 36613 ft | 472 kts | 147° |
| 2026-04-22 07:14 | 66.73461 | 30.20557 | 36614 ft | 472 kts | 147° |
| 2026-04-22 07:14 | 66.67971 | 30.29725 | 36614 ft | 472 kts | 147° |
| 2026-04-22 07:15 | 66.62476 | 30.38850 | 36615 ft | 472 kts | 147° |
| 2026-04-22 07:15 | 66.56966 | 30.47952 | 36615 ft | 472 kts | 147° |
| 2026-04-22 07:16 | 66.51463 | 30.56993 | 36615 ft | 472 kts | 147° |
| 2026-04-22 07:16 | 66.45933 | 30.66029 | 36615 ft | 472 kts | 148° |
| 2026-04-22 07:17 | 66.40422 | 30.74988 | 36614 ft | 472 kts | 148° |
| 2026-04-22 07:17 | 66.34890 | 30.83934 | 36615 ft | 472 kts | 148° |
| 2026-04-22 07:18 | 66.29397 | 30.92771 | 36615 ft | 472 kts | 148° |
| 2026-04-22 07:18 | 66.23852 | 31.01654 | 36616 ft | 472 kts | 148° |
| 2026-04-22 07:19 | 66.18340 | 31.10438 | 36616 ft | 470 kts | 149° |
| 2026-04-22 07:19 | 66.12811 | 31.19192 | 36615 ft | 466 kts | 149° |
| 2026-04-22 07:20 | 66.07362 | 31.27757 | 36616 ft | 465 kts | 150° |
| 2026-04-22 07:20 | 66.01860 | 31.36373 | 36616 ft | 465 kts | 150° |
| 2026-04-22 07:21 | 65.96381 | 31.44913 | 36616 ft | 465 kts | 150° |
| 2026-04-22 07:21 | 65.90913 | 31.53392 | 36616 ft | 465 kts | 150° |
| 2026-04-22 07:22 | 65.85438 | 31.61839 | 36616 ft | 465 kts | 150° |
| 2026-04-22 07:22 | 65.79920 | 31.70310 | 36613 ft | 465 kts | 150° |
| 2026-04-22 07:23 | 65.74461 | 31.78646 | 36614 ft | 465 kts | 150° |
| 2026-04-22 07:23 | 65.68973 | 31.86985 | 36613 ft | 464 kts | 150° |
| 2026-04-22 07:24 | 65.63448 | 31.95337 | 36614 ft | 464 kts | 150° |
| 2026-04-22 07:24 | 65.57950 | 32.03606 | 36614 ft | 464 kts | 150° |
| 2026-04-22 07:25 | 65.52576 | 32.12279 | 36617 ft | 466 kts | 146° |
| 2026-04-22 07:25 | 65.47300 | 32.21414 | 36615 ft | 466 kts | 147° |
| 2026-04-22 07:26 | 65.42005 | 32.30501 | 36615 ft | 466 kts | 147° |
| 2026-04-22 07:26 | 65.36701 | 32.39554 | 36616 ft | 466 kts | 147° |
| 2026-04-22 07:27 | 65.31400 | 32.48556 | 36607 ft | 466 kts | 147° |
| 2026-04-22 07:27 | 65.26124 | 32.57469 | 36616 ft | 466 kts | 147° |
| 2026-04-22 07:28 | 65.18160 | 32.70839 | 36601 ft | 466 kts | 148° |
| 2026-04-22 07:28 | 65.12859 | 32.79683 | 36593 ft | 466 kts | 148° |
| 2026-04-22 07:29 | 65.07535 | 32.88523 | 36589 ft | 466 kts | 148° |
| 2026-04-22 07:29 | 65.02209 | 32.97327 | 36588 ft | 465 kts | 148° |
| 2026-04-22 07:30 | 64.96907 | 33.06043 | 36588 ft | 464 kts | 148° |
| 2026-04-22 07:30 | 64.91613 | 33.14701 | 36587 ft | 463 kts | 148° |
| 2026-04-22 07:31 | 64.86298 | 33.23346 | 36588 ft | 463 kts | 148° |
| 2026-04-22 07:31 | 64.80988 | 33.31946 | 36588 ft | 463 kts | 148° |
| 2026-04-22 07:32 | 64.75671 | 33.40516 | 36589 ft | 463 kts | 148° |
| 2026-04-22 07:32 | 64.70384 | 33.48996 | 36589 ft | 463 kts | 148° |
| 2026-04-22 07:33 | 64.65032 | 33.57541 | 36590 ft | 463 kts | 148° |
| 2026-04-22 07:33 | 64.59744 | 33.65943 | 36590 ft | 463 kts | 149° |
| 2026-04-22 07:34 | 64.54394 | 33.74402 | 36587 ft | 463 kts | 149° |
| 2026-04-22 07:34 | 64.49062 | 33.82789 | 36587 ft | 463 kts | 149° |
| 2026-04-22 07:35 | 64.43710 | 33.91171 | 36587 ft | 463 kts | 149° |
| 2026-04-22 07:35 | 64.38389 | 33.99465 | 36587 ft | 463 kts | 149° |
| 2026-04-22 07:36 | 64.33036 | 34.07763 | 36588 ft | 462 kts | 149° |
| 2026-04-22 07:36 | 64.27679 | 34.16032 | 36588 ft | 463 kts | 149° |
| 2026-04-22 07:37 | 64.22325 | 34.24260 | 36588 ft | 463 kts | 149° |
| 2026-04-22 07:37 | 64.16989 | 34.32420 | 36588 ft | 463 kts | 149° |
| 2026-04-22 07:38 | 64.11622 | 34.40588 | 36589 ft | 463 kts | 149° |
| 2026-04-22 07:38 | 64.06239 | 34.48741 | 36589 ft | 463 kts | 149° |
| 2026-04-22 07:39 | 64.00866 | 34.56840 | 36590 ft | 463 kts | 149° |
| 2026-04-22 07:39 | 63.95493 | 34.64905 | 36589 ft | 463 kts | 149° |
| 2026-04-22 07:40 | 63.90548 | 34.72291 | 36586 ft | 463 kts | 150° |
| 2026-04-22 07:40 | 63.85164 | 34.80299 | 36587 ft | 462 kts | 150° |
| 2026-04-22 07:41 | 63.79787 | 34.88257 | 36587 ft | 464 kts | 150° |
| 2026-04-22 07:41 | 63.74356 | 34.96263 | 36586 ft | 464 kts | 150° |
| 2026-04-22 07:42 | 63.68921 | 35.04232 | 36590 ft | 465 kts | 150° |
| 2026-04-22 07:42 | 63.63492 | 35.12156 | 36587 ft | 465 kts | 150° |
| 2026-04-22 07:43 | 63.58064 | 35.20043 | 36588 ft | 465 kts | 150° |
| 2026-04-22 07:43 | 63.52625 | 35.27909 | 36588 ft | 466 kts | 150° |
| 2026-04-22 07:44 | 63.47165 | 35.35769 | 36590 ft | 466 kts | 150° |
| 2026-04-22 07:44 | 63.41707 | 35.43594 | 36589 ft | 465 kts | 150° |
| 2026-04-22 07:45 | 63.36216 | 35.51426 | 36589 ft | 465 kts | 150° |
| 2026-04-22 07:45 | 63.30779 | 35.59149 | 36589 ft | 466 kts | 150° |
| 2026-04-22 07:46 | 63.27115 | 35.64331 | 36588 ft | 465 kts | 150° |
| 2026-04-22 07:46 | 63.21640 | 35.72046 | 36585 ft | 465 kts | 151° |
| 2026-04-22 07:47 | 63.15974 | 35.78765 | 36591 ft | 459 kts | 164° |
| 2026-04-22 07:47 | 63.09809 | 35.81267 | 36593 ft | 448 kts | 184° |
| 2026-04-22 07:48 | 63.06701 | 35.80855 | 36118 ft | 448 kts | 192° |
| 2026-04-22 07:48 | 63.03693 | 35.79343 | 35498 ft | 442 kts | 202° |
| 2026-04-22 07:48 | 63.00908 | 35.76800 | 34885 ft | 435 kts | 211° |
| 2026-04-22 07:48 | 62.98381 | 35.73293 | 34271 ft | 429 kts | 220° |
| 2026-04-22 07:49 | 62.96066 | 35.69223 | 33656 ft | 427 kts | 221° |
| 2026-04-22 07:49 | 62.93617 | 35.65459 | 33026 ft | 429 kts | 213° |
| 2026-04-22 07:49 | 62.91009 | 35.62448 | 32416 ft | 428 kts | 212° |
| 2026-04-22 07:49 | 62.88403 | 35.59228 | 31787 ft | 426 kts | 214° |
| 2026-04-22 07:50 | 62.85860 | 35.55996 | 31166 ft | 426 kts | 214° |
| 2026-04-22 07:50 | 62.83314 | 35.52735 | 30548 ft | 425 kts | 214° |
| 2026-04-22 07:50 | 62.80777 | 35.49470 | 30040 ft | 421 kts | 214° |
| 2026-04-22 07:50 | 62.78254 | 35.46225 | 29532 ft | 418 kts | 214° |
| 2026-04-22 07:51 | 62.75761 | 35.43018 | 29025 ft | 414 kts | 214° |
| 2026-04-22 07:51 | 62.73292 | 35.39847 | 28521 ft | 411 kts | 214° |
| 2026-04-22 07:51 | 62.70836 | 35.36698 | 28023 ft | 408 kts | 214° |
| 2026-04-22 07:51 | 62.68411 | 35.33594 | 27636 ft | 402 kts | 213° |
| 2026-04-22 07:52 | 62.66033 | 35.30561 | 27332 ft | 394 kts | 213° |
| 2026-04-22 07:52 | 62.63700 | 35.27585 | 27155 ft | 382 kts | 213° |
| 2026-04-22 07:52 | 62.61429 | 35.24696 | 27011 ft | 371 kts | 213° |
| 2026-04-22 07:52 | 62.59222 | 35.21894 | 26865 ft | 363 kts | 214° |
| 2026-04-22 07:53 | 62.57056 | 35.19141 | 26736 ft | 362 kts | 214° |
| 2026-04-22 07:53 | 62.54904 | 35.16412 | 26615 ft | 364 kts | 213° |
| 2026-04-22 07:53 | 62.52692 | 35.13616 | 26493 ft | 364 kts | 213° |
| 2026-04-22 07:53 | 62.50534 | 35.10891 | 26374 ft | 364 kts | 213° |
| 2026-04-22 07:54 | 62.48322 | 35.08105 | 26246 ft | 364 kts | 213° |
| 2026-04-22 07:54 | 62.46146 | 35.05368 | 26120 ft | 363 kts | 213° |
| 2026-04-22 07:54 | 62.43960 | 35.02626 | 25970 ft | 362 kts | 213° |
| 2026-04-22 07:54 | 62.41790 | 34.99905 | 25819 ft | 360 kts | 213° |
| 2026-04-22 07:55 | 62.39638 | 34.97208 | 25668 ft | 358 kts | 213° |
| 2026-04-22 07:55 | 62.37461 | 34.94492 | 25515 ft | 356 kts | 213° |
| 2026-04-22 07:55 | 62.35327 | 34.91828 | 25364 ft | 355 kts | 213° |
| 2026-04-22 07:55 | 62.33221 | 34.89207 | 25215 ft | 353 kts | 213° |
| 2026-04-22 07:56 | 62.31087 | 34.86552 | 25063 ft | 352 kts | 213° |
| 2026-04-22 07:56 | 62.28986 | 34.83947 | 24912 ft | 350 kts | 213° |
| 2026-04-22 07:56 | 62.26871 | 34.81325 | 24760 ft | 348 kts | 213° |
| 2026-04-22 07:56 | 62.24793 | 34.78755 | 24608 ft | 346 kts | 213° |
| 2026-04-22 07:57 | 62.22719 | 34.76194 | 24457 ft | 346 kts | 213° |
| 2026-04-22 07:57 | 62.20620 | 34.73608 | 24304 ft | 345 kts | 213° |
| 2026-04-22 07:57 | 62.18541 | 34.71049 | 24152 ft | 344 kts | 213° |
| 2026-04-22 07:57 | 62.16497 | 34.68538 | 24001 ft | 343 kts | 213° |
| 2026-04-22 07:58 | 62.14410 | 34.65975 | 23847 ft | 343 kts | 213° |
| 2026-04-22 07:58 | 62.12338 | 34.63438 | 23694 ft | 342 kts | 213° |
| 2026-04-22 07:58 | 62.10303 | 34.60950 | 23543 ft | 341 kts | 213° |
| 2026-04-22 07:58 | 62.08234 | 34.58421 | 23389 ft | 340 kts | 213° |
| 2026-04-22 07:59 | 62.06192 | 34.55932 | 23236 ft | 339 kts | 213° |
| 2026-04-22 07:59 | 62.04132 | 34.53425 | 23081 ft | 338 kts | 213° |
| 2026-04-22 07:59 | 62.02088 | 34.50941 | 22928 ft | 338 kts | 213° |
| 2026-04-22 07:59 | 62.00053 | 34.48470 | 22775 ft | 337 kts | 213° |
| 2026-04-22 08:00 | 61.98008 | 34.45993 | 22620 ft | 336 kts | 213° |
| 2026-04-22 08:00 | 61.95989 | 34.43549 | 22466 ft | 335 kts | 213° |
| 2026-04-22 08:00 | 61.93971 | 34.41111 | 22312 ft | 334 kts | 213° |
| 2026-04-22 08:00 | 61.91949 | 34.38674 | 22158 ft | 333 kts | 213° |
| 2026-04-22 08:01 | 61.89942 | 34.36256 | 22004 ft | 333 kts | 213° |
| 2026-04-22 08:01 | 61.87936 | 34.33845 | 21853 ft | 332 kts | 212° |
| 2026-04-22 08:01 | 61.85909 | 34.31411 | 21704 ft | 331 kts | 212° |
| 2026-04-22 08:01 | 61.83912 | 34.29017 | 21556 ft | 330 kts | 212° |
| 2026-04-22 08:02 | 61.81905 | 34.26614 | 21406 ft | 330 kts | 212° |
| 2026-04-22 08:02 | 61.79918 | 34.24240 | 21259 ft | 329 kts | 212° |
| 2026-04-22 08:02 | 61.77905 | 34.21837 | 21108 ft | 328 kts | 212° |
| 2026-04-22 08:02 | 61.75918 | 34.19469 | 20959 ft | 327 kts | 212° |
| 2026-04-22 08:03 | 61.73957 | 34.17136 | 20811 ft | 327 kts | 212° |
| 2026-04-22 08:03 | 61.71979 | 34.14787 | 20662 ft | 326 kts | 212° |
| 2026-04-22 08:03 | 61.69992 | 34.12430 | 20511 ft | 325 kts | 212° |
| 2026-04-22 08:03 | 61.68032 | 34.10107 | 20363 ft | 324 kts | 212° |
| 2026-04-22 08:04 | 61.66065 | 34.07780 | 20213 ft | 324 kts | 212° |
| 2026-04-22 08:04 | 61.64096 | 34.05456 | 20063 ft | 323 kts | 212° |
| 2026-04-22 08:04 | 61.62143 | 34.03153 | 19913 ft | 322 kts | 212° |
| 2026-04-22 08:04 | 61.60220 | 34.00888 | 19765 ft | 321 kts | 212° |
| 2026-04-22 08:05 | 61.58270 | 33.98594 | 19615 ft | 321 kts | 212° |
| 2026-04-22 08:05 | 61.56310 | 33.96294 | 19463 ft | 320 kts | 212° |
| 2026-04-22 08:05 | 61.54397 | 33.94051 | 19315 ft | 319 kts | 212° |
| 2026-04-22 08:05 | 61.52458 | 33.91781 | 19164 ft | 318 kts | 212° |
| 2026-04-22 08:06 | 61.50523 | 33.89519 | 19013 ft | 317 kts | 212° |
| 2026-04-22 08:06 | 61.48593 | 33.87266 | 18861 ft | 317 kts | 212° |
| 2026-04-22 08:06 | 61.46667 | 33.85020 | 18710 ft | 317 kts | 212° |
| 2026-04-22 08:06 | 61.44756 | 33.82796 | 18560 ft | 316 kts | 212° |
| 2026-04-22 08:07 | 61.42835 | 33.80562 | 18408 ft | 315 kts | 212° |
| 2026-04-22 08:07 | 61.40911 | 33.78329 | 18256 ft | 314 kts | 212° |
| 2026-04-22 08:07 | 61.38983 | 33.76095 | 18103 ft | 314 kts | 212° |
| 2026-04-22 08:07 | 61.37092 | 33.73905 | 17952 ft | 313 kts | 212° |
| 2026-04-22 08:08 | 61.35191 | 33.71707 | 17801 ft | 312 kts | 212° |
| 2026-04-22 08:08 | 61.33276 | 33.69497 | 17647 ft | 311 kts | 212° |
| 2026-04-22 08:08 | 61.31388 | 33.67321 | 17495 ft | 311 kts | 212° |
| 2026-04-22 08:08 | 61.29509 | 33.65158 | 17344 ft | 310 kts | 212° |
| 2026-04-22 08:09 | 61.27618 | 33.62985 | 17191 ft | 309 kts | 212° |
| 2026-04-22 08:09 | 61.25732 | 33.60819 | 17039 ft | 309 kts | 212° |
| 2026-04-22 08:09 | 61.23871 | 33.58685 | 16887 ft | 308 kts | 212° |
| 2026-04-22 08:09 | 61.21986 | 33.56529 | 16734 ft | 307 kts | 212° |
| 2026-04-22 08:10 | 61.20116 | 33.54390 | 16581 ft | 306 kts | 212° |
| 2026-04-22 08:10 | 61.18241 | 33.52251 | 16427 ft | 306 kts | 212° |
| 2026-04-22 08:10 | 61.16396 | 33.50147 | 16276 ft | 305 kts | 212° |
| 2026-04-22 08:10 | 61.14527 | 33.48018 | 16122 ft | 304 kts | 212° |
| 2026-04-22 08:11 | 61.12674 | 33.45912 | 15969 ft | 303 kts | 212° |
| 2026-04-22 08:11 | 61.10834 | 33.43824 | 15816 ft | 303 kts | 212° |
| 2026-04-22 08:11 | 61.09004 | 33.41748 | 15664 ft | 302 kts | 212° |
| 2026-04-22 08:11 | 61.07151 | 33.39649 | 15509 ft | 301 kts | 211° |
| 2026-04-22 08:12 | 61.05329 | 33.37588 | 15362 ft | 301 kts | 211° |
| 2026-04-22 08:12 | 61.03489 | 33.35510 | 15220 ft | 300 kts | 211° |
| 2026-04-22 08:12 | 61.01667 | 33.33456 | 15069 ft | 300 kts | 211° |
| 2026-04-22 08:12 | 60.99829 | 33.31385 | 14918 ft | 299 kts | 211° |
| 2026-04-22 08:13 | 60.98014 | 33.29344 | 14768 ft | 298 kts | 211° |
| 2026-04-22 08:13 | 60.96186 | 33.27290 | 14617 ft | 298 kts | 211° |
| 2026-04-22 08:13 | 60.94384 | 33.25268 | 14468 ft | 297 kts | 211° |
| 2026-04-22 08:13 | 60.92569 | 33.23234 | 14317 ft | 296 kts | 211° |
| 2026-04-22 08:14 | 60.90749 | 33.21198 | 14165 ft | 296 kts | 211° |
| 2026-04-22 08:14 | 60.88931 | 33.19167 | 14015 ft | 295 kts | 211° |
| 2026-04-22 08:14 | 60.87149 | 33.17178 | 13867 ft | 294 kts | 211° |
| 2026-04-22 08:14 | 60.85337 | 33.15157 | 13717 ft | 294 kts | 211° |
| 2026-04-22 08:15 | 60.83546 | 33.13163 | 13568 ft | 293 kts | 211° |
| 2026-04-22 08:15 | 60.81760 | 33.11179 | 13419 ft | 292 kts | 211° |
| 2026-04-22 08:15 | 60.79959 | 33.09181 | 13268 ft | 291 kts | 211° |
| 2026-04-22 08:15 | 60.78181 | 33.07211 | 13118 ft | 291 kts | 211° |
| 2026-04-22 08:16 | 60.76423 | 33.05265 | 12970 ft | 290 kts | 211° |
| 2026-04-22 08:16 | 60.74644 | 33.03298 | 12820 ft | 289 kts | 211° |
| 2026-04-22 08:16 | 60.72882 | 33.01351 | 12670 ft | 288 kts | 211° |
| 2026-04-22 08:16 | 60.71132 | 32.99421 | 12521 ft | 287 kts | 212° |
| 2026-04-22 08:17 | 60.69354 | 32.97462 | 12369 ft | 287 kts | 212° |
| 2026-04-22 08:17 | 60.67606 | 32.95538 | 12219 ft | 286 kts | 212° |
| 2026-04-22 08:17 | 60.65858 | 32.93617 | 12068 ft | 285 kts | 212° |
| 2026-04-22 08:17 | 60.64124 | 32.91713 | 11918 ft | 285 kts | 212° |
| 2026-04-22 08:18 | 60.62380 | 32.89800 | 11767 ft | 284 kts | 213° |
| 2026-04-22 08:18 | 60.60629 | 32.87883 | 11615 ft | 284 kts | 213° |
| 2026-04-22 08:18 | 60.58884 | 32.85972 | 11463 ft | 283 kts | 213° |
| 2026-04-22 08:18 | 60.57159 | 32.84084 | 11313 ft | 282 kts | 213° |
| 2026-04-22 08:19 | 60.55419 | 32.82185 | 11161 ft | 282 kts | 213° |
| 2026-04-22 08:19 | 60.53691 | 32.80302 | 11009 ft | 281 kts | 213° |
| 2026-04-22 08:19 | 60.51977 | 32.78435 | 10858 ft | 280 kts | 213° |
| 2026-04-22 08:19 | 60.50258 | 32.76566 | 10706 ft | 279 kts | 213° |
| 2026-04-22 08:20 | 60.48548 | 32.74709 | 10555 ft | 279 kts | 213° |
| 2026-04-22 08:20 | 60.46824 | 32.72841 | 10402 ft | 278 kts | 213° |
| 2026-04-22 08:20 | 60.45121 | 32.70996 | 10250 ft | 277 kts | 213° |
| 2026-04-22 08:20 | 60.43428 | 32.69162 | 10099 ft | 276 kts | 213° |
| 2026-04-22 08:21 | 60.41724 | 32.67322 | 9946 ft | 276 kts | 212° |
| 2026-04-22 08:21 | 60.40029 | 32.65492 | 9794 ft | 277 kts | 212° |
| 2026-04-22 08:21 | 60.38340 | 32.63675 | 9643 ft | 278 kts | 213° |
| 2026-04-22 08:21 | 60.36641 | 32.61842 | 9492 ft | 276 kts | 213° |
| 2026-04-22 08:22 | 60.34941 | 32.60014 | 9338 ft | 273 kts | 212° |
| 2026-04-22 08:22 | 60.33264 | 32.58213 | 9184 ft | 273 kts | 212° |
| 2026-04-22 08:22 | 60.31577 | 32.56402 | 9030 ft | 274 kts | 213° |
| 2026-04-22 08:22 | 60.29921 | 32.54629 | 8881 ft | 271 kts | 213° |
| 2026-04-22 08:23 | 60.28255 | 32.52841 | 8740 ft | 272 kts | 212° |
| 2026-04-22 08:23 | 60.26570 | 32.51043 | 8614 ft | 273 kts | 212° |
| 2026-04-22 08:23 | 60.24900 | 32.49257 | 8488 ft | 270 kts | 212° |
| 2026-04-22 08:23 | 60.23216 | 32.47462 | 8358 ft | 272 kts | 212° |
| 2026-04-22 08:24 | 60.21555 | 32.45693 | 8231 ft | 270 kts | 212° |
| 2026-04-22 08:24 | 60.19898 | 32.43928 | 8103 ft | 270 kts | 212° |
| 2026-04-22 08:24 | 60.18228 | 32.42153 | 7974 ft | 270 kts | 212° |
| 2026-04-22 08:24 | 60.16557 | 32.40379 | 7845 ft | 270 kts | 212° |
| 2026-04-22 08:25 | 60.14903 | 32.38626 | 7718 ft | 269 kts | 212° |
| 2026-04-22 08:25 | 60.13247 | 32.36871 | 7589 ft | 269 kts | 212° |
| 2026-04-22 08:25 | 60.11611 | 32.35140 | 7462 ft | 268 kts | 212° |
| 2026-04-22 08:25 | 60.10043 | 32.33483 | 7345 ft | 268 kts | 211° |
| 2026-04-22 08:26 | 60.08375 | 32.31723 | 7220 ft | 268 kts | 211° |
| 2026-04-22 08:26 | 60.06808 | 32.29806 | 7093 ft | 263 kts | 225° |
| 2026-04-22 08:26 | 60.05770 | 32.26888 | 6976 ft | 256 kts | 249° |
| 2026-04-22 08:26 | 60.05184 | 32.23497 | 6871 ft | 256 kts | 252° |
| 2026-04-22 08:27 | 60.04563 | 32.20141 | 6748 ft | 256 kts | 251° |
| 2026-04-22 08:27 | 60.03981 | 32.16807 | 6624 ft | 255 kts | 252° |
| 2026-04-22 08:27 | 60.03394 | 32.13425 | 6499 ft | 255 kts | 252° |
| 2026-04-22 08:27 | 60.02811 | 32.10043 | 6373 ft | 254 kts | 252° |
| 2026-04-22 08:28 | 60.02235 | 32.06696 | 6248 ft | 254 kts | 252° |
| 2026-04-22 08:28 | 60.01662 | 32.03359 | 6123 ft | 254 kts | 252° |
| 2026-04-22 08:28 | 60.01091 | 32.00044 | 5999 ft | 253 kts | 252° |
| 2026-04-22 08:28 | 60.00515 | 31.96696 | 5873 ft | 253 kts | 252° |
| 2026-04-22 08:29 | 59.99943 | 31.93383 | 5760 ft | 252 kts | 252° |
| 2026-04-22 08:29 | 59.99379 | 31.90121 | 5741 ft | 244 kts | 252° |
| 2026-04-22 08:29 | 59.98826 | 31.86929 | 5743 ft | 240 kts | 252° |
| 2026-04-22 08:29 | 59.98281 | 31.83782 | 5750 ft | 241 kts | 252° |
| 2026-04-22 08:30 | 59.97731 | 31.80616 | 5744 ft | 242 kts | 252° |
| 2026-04-22 08:30 | 59.97178 | 31.77431 | 5666 ft | 242 kts | 252° |
| 2026-04-22 08:30 | 59.96619 | 31.74223 | 5569 ft | 242 kts | 252° |
| 2026-04-22 08:30 | 59.96069 | 31.71071 | 5467 ft | 241 kts | 252° |
| 2026-04-22 08:31 | 59.95518 | 31.67925 | 5365 ft | 240 kts | 252° |
| 2026-04-22 08:31 | 59.94970 | 31.64798 | 5254 ft | 234 kts | 252° |
| 2026-04-22 08:31 | 59.93926 | 31.58860 | 5014 ft | 218 kts | 252° |
| 2026-04-22 08:32 | 59.93424 | 31.56005 | 4904 ft | 216 kts | 252° |
| 2026-04-22 08:32 | 59.92922 | 31.53160 | 4803 ft | 217 kts | 252° |
| 2026-04-22 08:32 | 59.92420 | 31.50314 | 4703 ft | 217 kts | 252° |
| 2026-04-22 08:32 | 59.91920 | 31.47491 | 4614 ft | 217 kts | 252° |
| 2026-04-22 08:33 | 59.91413 | 31.44628 | 4537 ft | 217 kts | 252° |
| 2026-04-22 08:33 | 59.90907 | 31.41776 | 4460 ft | 217 kts | 252° |
| 2026-04-22 08:33 | 59.90403 | 31.38942 | 4382 ft | 217 kts | 252° |
| 2026-04-22 08:33 | 59.89900 | 31.36113 | 4304 ft | 216 kts | 252° |
| 2026-04-22 08:34 | 59.89391 | 31.33259 | 4228 ft | 216 kts | 252° |
| 2026-04-22 08:34 | 59.88889 | 31.30452 | 4155 ft | 216 kts | 252° |
| 2026-04-22 08:34 | 59.88384 | 31.27627 | 4081 ft | 216 kts | 252° |
| 2026-04-22 08:34 | 59.87872 | 31.24764 | 4006 ft | 216 kts | 252° |
| 2026-04-22 08:35 | 59.87370 | 31.21968 | 3932 ft | 216 kts | 252° |
| 2026-04-22 08:35 | 59.86862 | 31.19136 | 3857 ft | 215 kts | 252° |
| 2026-04-22 08:35 | 59.86359 | 31.16300 | 3782 ft | 215 kts | 253° |
| 2026-04-22 08:35 | 59.85881 | 31.13475 | 3707 ft | 215 kts | 250° |
| 2026-04-22 08:36 | 59.85316 | 31.10703 | 3633 ft | 215 kts | 250° |
| 2026-04-22 08:36 | 59.84781 | 31.07930 | 3559 ft | 214 kts | 250° |
| 2026-04-22 08:36 | 59.84248 | 31.05183 | 3487 ft | 213 kts | 250° |
| 2026-04-22 08:36 | 59.83713 | 31.02431 | 3412 ft | 213 kts | 250° |
| 2026-04-22 08:37 | 59.83186 | 30.99679 | 3337 ft | 210 kts | 250° |
| 2026-04-22 08:37 | 59.82663 | 30.96961 | 3254 ft | 211 kts | 250° |
| 2026-04-22 08:37 | 59.82135 | 30.94231 | 3186 ft | 211 kts | 250° |
| 2026-04-22 08:37 | 59.81612 | 30.91527 | 3087 ft | 208 kts | 250° |
| 2026-04-22 08:38 | 59.81079 | 30.88774 | 3037 ft | 212 kts | 249° |
| 2026-04-22 08:38 | 59.80553 | 30.86061 | 2948 ft | 211 kts | 249° |
| 2026-04-22 08:38 | 59.80030 | 30.83354 | 2869 ft | 209 kts | 250° |
| 2026-04-22 08:38 | 59.79488 | 30.80589 | 2796 ft | 211 kts | 250° |
| 2026-04-22 08:39 | 59.78958 | 30.77859 | 2718 ft | 212 kts | 250° |
| 2026-04-22 08:39 | 59.78429 | 30.75140 | 2646 ft | 210 kts | 250° |
| 2026-04-22 08:39 | 59.77901 | 30.72416 | 2566 ft | 211 kts | 250° |
| 2026-04-22 08:39 | 59.77362 | 30.69690 | 2502 ft | 209 kts | 250° |
| 2026-04-22 08:40 | 59.76851 | 30.67056 | 2469 ft | 196 kts | 251° |
| 2026-04-22 08:40 | 59.76371 | 30.64606 | 2459 ft | 190 kts | 250° |
| 2026-04-22 08:40 | 59.75844 | 30.61909 | 2528 ft | 224 kts | 251° |
| 2026-04-22 08:40 | 59.75266 | 30.58959 | 2476 ft | 225 kts | 251° |
| 2026-04-22 08:41 | 59.74952 | 30.56062 | 2432 ft | 209 kts | 272° |
| 2026-04-22 08:41 | 59.75288 | 30.53396 | 2462 ft | 186 kts | 287° |
| 2026-04-22 08:41 | 59.75644 | 30.51155 | 2437 ft | 157 kts | 283° |
| 2026-04-22 08:41 | 59.75932 | 30.49125 | 2201 ft | 145 kts | 285° |
| 2026-04-22 08:42 | 59.76216 | 30.47209 | 2033 ft | 141 kts | 283° |
| 2026-04-22 08:42 | 59.76481 | 30.45422 | 1837 ft | 132 kts | 283° |
| 2026-04-22 08:42 | 59.76751 | 30.43613 | 1685 ft | 133 kts | 284° |
| 2026-04-22 08:42 | 59.77004 | 30.41919 | 1475 ft | 122 kts | 283° |
| 2026-04-22 08:43 | 59.77248 | 30.40191 | 1359 ft | 136 kts | 284° |
| 2026-04-22 08:43 | 59.77512 | 30.38421 | 1159 ft | 129 kts | 285° |
| 2026-04-22 08:43 | 59.77787 | 30.36700 | 980 ft | 130 kts | 287° |
| 2026-04-22 08:43 | 59.78049 | 30.35048 | 810 ft | 124 kts | 284° |
| 2026-04-22 08:44 | 59.78302 | 30.33305 | 679 ft | 133 kts | 284° |
| 2026-04-22 08:44 | 59.78549 | 30.31602 | 477 ft | 122 kts | 283° |
| 2026-04-22 08:44 | 59.78794 | 30.29962 | 312 ft | 125 kts | 284° |
| 2026-04-22 08:44 | 59.79034 | 30.28313 | 143 ft | 125 kts | 283° |
| 2026-04-22 08:45 | 59.79280 | 30.26677 | 101 ft | 114 kts | 283° |
| 2026-04-22 08:45 | 59.79459 | 30.25449 | 93 ft | 66 kts | 284° |
| 2026-04-22 08:45 | 59.79570 | 30.24635 | 93 ft | 55 kts | 286° |
| 2026-04-22 08:45 | 59.79678 | 30.23944 | 93 ft | 48 kts | 287° |
| 2026-04-22 08:46 | 59.79774 | 30.23371 | 90 ft | 31 kts | 297° |
| 2026-04-22 08:46 | 59.79879 | 30.23106 | 90 ft | 17 kts | 314° |
| 2026-04-22 08:46 | 59.79967 | 30.23054 | 90 ft | 8 kts | 46° |
| 2026-04-22 08:46 | 59.79964 | 30.23187 | 90 ft | 13 kts | 104° |
| 2026-04-22 08:47 | 59.79932 | 30.23412 | 90 ft | 20 kts | 106° |
| 2026-04-22 08:47 | 59.79885 | 30.23718 | 91 ft | 24 kts | 107° |
| 2026-04-22 08:47 | 59.79838 | 30.24058 | 93 ft | 26 kts | 104° |
| 2026-04-22 08:47 | 59.79782 | 30.24442 | 93 ft | 30 kts | 106° |
| 2026-04-22 08:48 | 59.79722 | 30.24846 | 93 ft | 29 kts | 104° |
| 2026-04-22 08:48 | 59.79663 | 30.25228 | 93 ft | 28 kts | 107° |
| 2026-04-22 08:48 | 59.79614 | 30.25592 | 94 ft | 24 kts | 107° |
| 2026-04-22 08:48 | 59.79563 | 30.25905 | 96 ft | 22 kts | 107° |
| 2026-04-22 08:49 | 59.79520 | 30.26192 | 96 ft | 19 kts | 97° |
| 2026-04-22 08:49 | 59.79585 | 30.26339 | 96 ft | 13 kts | 19° |
| 2026-04-22 08:49 | 59.79666 | 30.26390 | 96 ft | 11 kts | 17° |
| 2026-04-22 08:49 | 59.79738 | 30.26435 | 96 ft | 9 kts | 17° |
| 2026-04-22 08:50 | 59.79782 | 30.26509 | 96 ft | 8 kts | 65° |
| 2026-04-22 08:50 | 59.79788 | 30.26621 | 96 ft | 7 kts | 90° |
| 2026-04-22 08:50 | 59.79788 | 30.26653 | 96 ft | 0 kts | 90° |